<?xml version="1.0" encoding="UTF-8" standalone="no" ?>
<gpx xmlns="http://www.topografix.com/GPX/1/1" xmlns:xsi="http://www.w3.org/2001/XMLSchema-instance" xsi:schemaLocation="http://www.topografix.com/GPX/1/1 http://www.topografix.com/GPX/1/1/gpx.xsd" version="1.1" creator="VisuGPX - https://www.visugpx.com">
  <metadata>
    <name>Day 12: Saint-Jean-de-Monts -&gt; Noirmoutier-en-l'Île</name>
  </metadata>
  <trk>
    <name><![CDATA[Day 12: Saint-Jean-de-Monts -> Noirmoutier-en-l'Île_1]]></name>
    <trkseg>
      <trkpt lat="46.78717" lon="-2.06667">
        <ele>49</ele>
        <time>2025-05-06T07:30:13Z</time>
      </trkpt>
      <trkpt lat="46.78758" lon="-2.06829">
        <ele>52</ele>
        <time>2025-05-06T07:30:54Z</time>
      </trkpt>
      <trkpt lat="46.78776" lon="-2.06878">
        <ele>53</ele>
        <time>2025-05-06T07:31:05Z</time>
      </trkpt>
      <trkpt lat="46.78794" lon="-2.06909">
        <ele>51</ele>
        <time>2025-05-06T07:31:13Z</time>
      </trkpt>
      <trkpt lat="46.78818" lon="-2.06952">
        <ele>52</ele>
        <time>2025-05-06T07:31:25Z</time>
      </trkpt>
      <trkpt lat="46.78795" lon="-2.07011">
        <ele>51</ele>
        <time>2025-05-06T07:31:42Z</time>
      </trkpt>
      <trkpt lat="46.7875" lon="-2.0709">
        <ele>56</ele>
        <time>2025-05-06T07:32:02Z</time>
      </trkpt>
      <trkpt lat="46.78739" lon="-2.07108">
        <ele>55</ele>
        <time>2025-05-06T07:32:07Z</time>
      </trkpt>
      <trkpt lat="46.78732" lon="-2.07125">
        <ele>54</ele>
        <time>2025-05-06T07:32:12Z</time>
      </trkpt>
      <trkpt lat="46.78752" lon="-2.07193">
        <ele>57</ele>
        <time>2025-05-06T07:32:33Z</time>
      </trkpt>
      <trkpt lat="46.78812" lon="-2.07257">
        <ele>57</ele>
        <time>2025-05-06T07:33:00Z</time>
      </trkpt>
      <trkpt lat="46.78824" lon="-2.07273">
        <ele>56</ele>
        <time>2025-05-06T07:33:05Z</time>
      </trkpt>
      <trkpt lat="46.78864" lon="-2.07377">
        <ele>52</ele>
        <time>2025-05-06T07:33:27Z</time>
      </trkpt>
      <trkpt lat="46.78871" lon="-2.07395">
        <ele>52</ele>
        <time>2025-05-06T07:33:31Z</time>
      </trkpt>
      <trkpt lat="46.78878" lon="-2.07413">
        <ele>52</ele>
        <time>2025-05-06T07:33:35Z</time>
      </trkpt>
      <trkpt lat="46.78931" lon="-2.07493">
        <ele>49</ele>
        <time>2025-05-06T07:33:56Z</time>
      </trkpt>
      <trkpt lat="46.78946" lon="-2.07492">
        <ele>49</ele>
        <time>2025-05-06T07:34:01Z</time>
      </trkpt>
      <trkpt lat="46.78966" lon="-2.07614">
        <ele>53</ele>
        <time>2025-05-06T07:34:30Z</time>
      </trkpt>
      <trkpt lat="46.78966" lon="-2.07669">
        <ele>57</ele>
        <time>2025-05-06T07:34:40Z</time>
      </trkpt>
      <trkpt lat="46.78959" lon="-2.0769">
        <ele>57</ele>
        <time>2025-05-06T07:34:46Z</time>
      </trkpt>
      <trkpt lat="46.78966" lon="-2.07817">
        <ele>55</ele>
        <time>2025-05-06T07:35:05Z</time>
      </trkpt>
      <trkpt lat="46.78966" lon="-2.07842">
        <ele>55</ele>
        <time>2025-05-06T07:35:09Z</time>
      </trkpt>
      <trkpt lat="46.78966" lon="-2.07929">
        <ele>54</ele>
        <time>2025-05-06T07:35:23Z</time>
      </trkpt>
      <trkpt lat="46.79002" lon="-2.0794">
        <ele>52</ele>
        <time>2025-05-06T07:35:46Z</time>
      </trkpt>
      <trkpt lat="46.79049" lon="-2.08016">
        <ele>54</ele>
        <time>2025-05-06T07:36:05Z</time>
      </trkpt>
      <trkpt lat="46.79061" lon="-2.0803">
        <ele>54</ele>
        <time>2025-05-06T07:36:09Z</time>
      </trkpt>
      <trkpt lat="46.79073" lon="-2.08044">
        <ele>54</ele>
        <time>2025-05-06T07:36:13Z</time>
      </trkpt>
      <trkpt lat="46.79107" lon="-2.08074">
        <ele>52</ele>
        <time>2025-05-06T07:36:23Z</time>
      </trkpt>
      <trkpt lat="46.79121" lon="-2.08091">
        <ele>52</ele>
        <time>2025-05-06T07:36:28Z</time>
      </trkpt>
      <trkpt lat="46.7917" lon="-2.08138">
        <ele>51</ele>
        <time>2025-05-06T07:36:44Z</time>
      </trkpt>
      <trkpt lat="46.79185" lon="-2.08115">
        <ele>50</ele>
        <time>2025-05-06T07:36:53Z</time>
      </trkpt>
      <trkpt lat="46.79197" lon="-2.08093">
        <ele>52</ele>
        <time>2025-05-06T07:37:00Z</time>
      </trkpt>
      <trkpt lat="46.79249" lon="-2.0805">
        <ele>50</ele>
        <time>2025-05-06T07:37:17Z</time>
      </trkpt>
      <trkpt lat="46.79287" lon="-2.0801">
        <ele>47</ele>
        <time>2025-05-06T07:37:29Z</time>
      </trkpt>
      <trkpt lat="46.79298" lon="-2.07996">
        <ele>47</ele>
        <time>2025-05-06T07:37:34Z</time>
      </trkpt>
      <trkpt lat="46.7934" lon="-2.07945">
        <ele>45</ele>
        <time>2025-05-06T07:37:50Z</time>
      </trkpt>
      <trkpt lat="46.79363" lon="-2.07931">
        <ele>46</ele>
        <time>2025-05-06T07:37:57Z</time>
      </trkpt>
      <trkpt lat="46.79431" lon="-2.07887">
        <ele>50</ele>
        <time>2025-05-06T07:38:16Z</time>
      </trkpt>
      <trkpt lat="46.79443" lon="-2.0787">
        <ele>50</ele>
        <time>2025-05-06T07:38:21Z</time>
      </trkpt>
      <trkpt lat="46.7945" lon="-2.0785">
        <ele>47</ele>
        <time>2025-05-06T07:38:27Z</time>
      </trkpt>
      <trkpt lat="46.79464" lon="-2.07809">
        <ele>51</ele>
        <time>2025-05-06T07:38:37Z</time>
      </trkpt>
      <trkpt lat="46.79473" lon="-2.07792">
        <ele>50</ele>
        <time>2025-05-06T07:38:43Z</time>
      </trkpt>
      <trkpt lat="46.79499" lon="-2.07764">
        <ele>53</ele>
        <time>2025-05-06T07:38:56Z</time>
      </trkpt>
      <trkpt lat="46.79528" lon="-2.0775">
        <ele>57</ele>
        <time>2025-05-06T07:39:12Z</time>
      </trkpt>
      <trkpt lat="46.79541" lon="-2.07749">
        <ele>61</ele>
        <time>2025-05-06T07:39:20Z</time>
      </trkpt>
      <trkpt lat="46.79568" lon="-2.07743">
        <ele>65</ele>
        <time>2025-05-06T07:39:34Z</time>
      </trkpt>
      <trkpt lat="46.79672" lon="-2.07697">
        <ele>57</ele>
        <time>2025-05-06T07:40:17Z</time>
      </trkpt>
      <trkpt lat="46.79708" lon="-2.07672">
        <ele>54</ele>
        <time>2025-05-06T07:40:24Z</time>
      </trkpt>
      <trkpt lat="46.79743" lon="-2.07668">
        <ele>52</ele>
        <time>2025-05-06T07:40:31Z</time>
      </trkpt>
      <trkpt lat="46.79757" lon="-2.07671">
        <ele>52</ele>
        <time>2025-05-06T07:40:34Z</time>
      </trkpt>
      <trkpt lat="46.79782" lon="-2.0768">
        <ele>52</ele>
        <time>2025-05-06T07:40:40Z</time>
      </trkpt>
      <trkpt lat="46.79824" lon="-2.07722">
        <ele>54</ele>
        <time>2025-05-06T07:40:50Z</time>
      </trkpt>
      <trkpt lat="46.79828" lon="-2.07742">
        <ele>57</ele>
        <time>2025-05-06T07:40:54Z</time>
      </trkpt>
      <trkpt lat="46.79831" lon="-2.07762">
        <ele>59</ele>
        <time>2025-05-06T07:40:59Z</time>
      </trkpt>
      <trkpt lat="46.79841" lon="-2.07794">
        <ele>62</ele>
        <time>2025-05-06T07:41:07Z</time>
      </trkpt>
      <trkpt lat="46.79911" lon="-2.07987">
        <ele>54</ele>
        <time>2025-05-06T07:41:35Z</time>
      </trkpt>
      <trkpt lat="46.79926" lon="-2.08056">
        <ele>51</ele>
        <time>2025-05-06T07:41:44Z</time>
      </trkpt>
      <trkpt lat="46.79926" lon="-2.08079">
        <ele>50</ele>
        <time>2025-05-06T07:41:47Z</time>
      </trkpt>
      <trkpt lat="46.79931" lon="-2.08143">
        <ele>51</ele>
        <time>2025-05-06T07:41:56Z</time>
      </trkpt>
      <trkpt lat="46.79933" lon="-2.08167">
        <ele>52</ele>
        <time>2025-05-06T07:42:00Z</time>
      </trkpt>
      <trkpt lat="46.79936" lon="-2.08195">
        <ele>52</ele>
        <time>2025-05-06T07:42:05Z</time>
      </trkpt>
      <trkpt lat="46.79944" lon="-2.08222">
        <ele>52</ele>
        <time>2025-05-06T07:42:10Z</time>
      </trkpt>
      <trkpt lat="46.79953" lon="-2.08248">
        <ele>52</ele>
        <time>2025-05-06T07:42:16Z</time>
      </trkpt>
      <trkpt lat="46.79964" lon="-2.08279">
        <ele>57</ele>
        <time>2025-05-06T07:45:44Z</time>
      </trkpt>
      <trkpt lat="46.79978" lon="-2.08337">
        <ele>51</ele>
        <time>2025-05-06T07:45:58Z</time>
      </trkpt>
      <trkpt lat="46.79991" lon="-2.08391">
        <ele>51</ele>
        <time>2025-05-06T07:46:10Z</time>
      </trkpt>
      <trkpt lat="46.80002" lon="-2.0843">
        <ele>52</ele>
        <time>2025-05-06T07:46:19Z</time>
      </trkpt>
      <trkpt lat="46.80023" lon="-2.08502">
        <ele>51</ele>
        <time>2025-05-06T07:46:33Z</time>
      </trkpt>
      <trkpt lat="46.8003" lon="-2.08576">
        <ele>51</ele>
        <time>2025-05-06T07:46:46Z</time>
      </trkpt>
      <trkpt lat="46.80033" lon="-2.08598">
        <ele>51</ele>
        <time>2025-05-06T07:46:50Z</time>
      </trkpt>
      <trkpt lat="46.80039" lon="-2.08625">
        <ele>51</ele>
        <time>2025-05-06T07:46:55Z</time>
      </trkpt>
      <trkpt lat="46.80044" lon="-2.08646">
        <ele>51</ele>
        <time>2025-05-06T07:46:59Z</time>
      </trkpt>
      <trkpt lat="46.80058" lon="-2.08686">
        <ele>52</ele>
        <time>2025-05-06T07:47:07Z</time>
      </trkpt>
      <trkpt lat="46.80072" lon="-2.08711">
        <ele>52</ele>
        <time>2025-05-06T07:47:13Z</time>
      </trkpt>
      <trkpt lat="46.80094" lon="-2.08773">
        <ele>52</ele>
        <time>2025-05-06T07:47:26Z</time>
      </trkpt>
      <trkpt lat="46.80098" lon="-2.08795">
        <ele>53</ele>
        <time>2025-05-06T07:47:31Z</time>
      </trkpt>
      <trkpt lat="46.80104" lon="-2.0885">
        <ele>56</ele>
        <time>2025-05-06T07:47:48Z</time>
      </trkpt>
      <trkpt lat="46.80113" lon="-2.08873">
        <ele>55</ele>
        <time>2025-05-06T07:47:56Z</time>
      </trkpt>
      <trkpt lat="46.80126" lon="-2.08901">
        <ele>59</ele>
        <time>2025-05-06T07:48:07Z</time>
      </trkpt>
      <trkpt lat="46.80135" lon="-2.08944">
        <ele>61</ele>
        <time>2025-05-06T07:48:22Z</time>
      </trkpt>
      <trkpt lat="46.80143" lon="-2.08995">
        <ele>64</ele>
        <time>2025-05-06T07:48:40Z</time>
      </trkpt>
      <trkpt lat="46.80244" lon="-2.09349">
        <ele>68</ele>
        <time>2025-05-06T07:50:24Z</time>
      </trkpt>
      <trkpt lat="46.8025" lon="-2.09377">
        <ele>69</ele>
        <time>2025-05-06T07:50:30Z</time>
      </trkpt>
      <trkpt lat="46.80261" lon="-2.09424">
        <ele>65</ele>
        <time>2025-05-06T07:50:38Z</time>
      </trkpt>
      <trkpt lat="46.80273" lon="-2.09463">
        <ele>65</ele>
        <time>2025-05-06T07:50:45Z</time>
      </trkpt>
      <trkpt lat="46.80304" lon="-2.09584">
        <ele>66</ele>
        <time>2025-05-06T07:51:09Z</time>
      </trkpt>
      <trkpt lat="46.8034" lon="-2.09664">
        <ele>65</ele>
        <time>2025-05-06T07:51:24Z</time>
      </trkpt>
      <trkpt lat="46.80351" lon="-2.09713">
        <ele>64</ele>
        <time>2025-05-06T07:51:30Z</time>
      </trkpt>
      <trkpt lat="46.80366" lon="-2.09747">
        <ele>63</ele>
        <time>2025-05-06T07:51:35Z</time>
      </trkpt>
      <trkpt lat="46.80376" lon="-2.09767">
        <ele>65</ele>
        <time>2025-05-06T07:51:39Z</time>
      </trkpt>
      <trkpt lat="46.80388" lon="-2.09805">
        <ele>66</ele>
        <time>2025-05-06T07:51:47Z</time>
      </trkpt>
      <trkpt lat="46.80403" lon="-2.09827">
        <ele>68</ele>
        <time>2025-05-06T07:51:53Z</time>
      </trkpt>
      <trkpt lat="46.80444" lon="-2.09869">
        <ele>64</ele>
        <time>2025-05-06T07:52:06Z</time>
      </trkpt>
      <trkpt lat="46.80482" lon="-2.09975">
        <ele>56</ele>
        <time>2025-05-06T07:52:32Z</time>
      </trkpt>
      <trkpt lat="46.80503" lon="-2.10056">
        <ele>53</ele>
        <time>2025-05-06T07:52:41Z</time>
      </trkpt>
      <trkpt lat="46.80509" lon="-2.1009">
        <ele>48</ele>
        <time>2025-05-06T07:52:45Z</time>
      </trkpt>
      <trkpt lat="46.80514" lon="-2.10115">
        <ele>48</ele>
        <time>2025-05-06T07:52:50Z</time>
      </trkpt>
      <trkpt lat="46.80531" lon="-2.10124">
        <ele>52</ele>
        <time>2025-05-06T07:53:21Z</time>
      </trkpt>
      <trkpt lat="46.80542" lon="-2.10209">
        <ele>55</ele>
        <time>2025-05-06T07:53:59Z</time>
      </trkpt>
      <trkpt lat="46.80561" lon="-2.10266">
        <ele>56</ele>
        <time>2025-05-06T07:54:11Z</time>
      </trkpt>
      <trkpt lat="46.80572" lon="-2.10305">
        <ele>55</ele>
        <time>2025-05-06T07:54:19Z</time>
      </trkpt>
      <trkpt lat="46.80585" lon="-2.10345">
        <ele>54</ele>
        <time>2025-05-06T07:54:27Z</time>
      </trkpt>
      <trkpt lat="46.80591" lon="-2.10411">
        <ele>51</ele>
        <time>2025-05-06T07:54:39Z</time>
      </trkpt>
      <trkpt lat="46.80603" lon="-2.1046">
        <ele>52</ele>
        <time>2025-05-06T07:54:48Z</time>
      </trkpt>
      <trkpt lat="46.80612" lon="-2.10489">
        <ele>54</ele>
        <time>2025-05-06T07:54:54Z</time>
      </trkpt>
      <trkpt lat="46.8062" lon="-2.10518">
        <ele>54</ele>
        <time>2025-05-06T07:55:00Z</time>
      </trkpt>
      <trkpt lat="46.80632" lon="-2.10575">
        <ele>58</ele>
        <time>2025-05-06T07:55:15Z</time>
      </trkpt>
      <trkpt lat="46.80636" lon="-2.10595">
        <ele>56</ele>
        <time>2025-05-06T07:55:20Z</time>
      </trkpt>
      <trkpt lat="46.80697" lon="-2.10779">
        <ele>52</ele>
        <time>2025-05-06T07:55:56Z</time>
      </trkpt>
      <trkpt lat="46.80725" lon="-2.10837">
        <ele>48</ele>
        <time>2025-05-06T07:56:04Z</time>
      </trkpt>
      <trkpt lat="46.80735" lon="-2.10862">
        <ele>47</ele>
        <time>2025-05-06T07:56:08Z</time>
      </trkpt>
      <trkpt lat="46.80799" lon="-2.11013">
        <ele>52</ele>
        <time>2025-05-06T07:56:35Z</time>
      </trkpt>
      <trkpt lat="46.80806" lon="-2.11035">
        <ele>53</ele>
        <time>2025-05-06T07:56:40Z</time>
      </trkpt>
      <trkpt lat="46.80849" lon="-2.11182">
        <ele>52</ele>
        <time>2025-05-06T07:57:18Z</time>
      </trkpt>
      <trkpt lat="46.80869" lon="-2.11223">
        <ele>56</ele>
        <time>2025-05-06T07:57:48Z</time>
      </trkpt>
      <trkpt lat="46.80881" lon="-2.11261">
        <ele>53</ele>
        <time>2025-05-06T07:57:57Z</time>
      </trkpt>
      <trkpt lat="46.80911" lon="-2.11365">
        <ele>53</ele>
        <time>2025-05-06T07:58:18Z</time>
      </trkpt>
      <trkpt lat="46.80925" lon="-2.11407">
        <ele>50</ele>
        <time>2025-05-06T07:58:25Z</time>
      </trkpt>
      <trkpt lat="46.8096" lon="-2.11507">
        <ele>51</ele>
        <time>2025-05-06T07:58:44Z</time>
      </trkpt>
      <trkpt lat="46.80984" lon="-2.11571">
        <ele>55</ele>
        <time>2025-05-06T07:58:59Z</time>
      </trkpt>
      <trkpt lat="46.80991" lon="-2.1159">
        <ele>55</ele>
        <time>2025-05-06T07:59:04Z</time>
      </trkpt>
      <trkpt lat="46.81006" lon="-2.11648">
        <ele>54</ele>
        <time>2025-05-06T07:59:16Z</time>
      </trkpt>
      <trkpt lat="46.81008" lon="-2.11685">
        <ele>55</ele>
        <time>2025-05-06T07:59:23Z</time>
      </trkpt>
      <trkpt lat="46.81064" lon="-2.11823">
        <ele>58</ele>
        <time>2025-05-06T07:59:58Z</time>
      </trkpt>
      <trkpt lat="46.81099" lon="-2.11845">
        <ele>58</ele>
        <time>2025-05-06T08:00:12Z</time>
      </trkpt>
      <trkpt lat="46.81193" lon="-2.11913">
        <ele>47</ele>
        <time>2025-05-06T08:00:36Z</time>
      </trkpt>
      <trkpt lat="46.8121" lon="-2.11939">
        <ele>49</ele>
        <time>2025-05-06T08:00:43Z</time>
      </trkpt>
      <trkpt lat="46.81251" lon="-2.12">
        <ele>49</ele>
        <time>2025-05-06T08:00:59Z</time>
      </trkpt>
      <trkpt lat="46.81293" lon="-2.12081">
        <ele>51</ele>
        <time>2025-05-06T08:01:18Z</time>
      </trkpt>
      <trkpt lat="46.81308" lon="-2.1211">
        <ele>50</ele>
        <time>2025-05-06T08:01:25Z</time>
      </trkpt>
      <trkpt lat="46.81329" lon="-2.12195">
        <ele>51</ele>
        <time>2025-05-06T08:01:44Z</time>
      </trkpt>
      <trkpt lat="46.81309" lon="-2.12217">
        <ele>52</ele>
        <time>2025-05-06T08:01:54Z</time>
      </trkpt>
      <trkpt lat="46.81288" lon="-2.1226">
        <ele>52</ele>
        <time>2025-05-06T08:02:08Z</time>
      </trkpt>
      <trkpt lat="46.81281" lon="-2.123">
        <ele>54</ele>
        <time>2025-05-06T08:02:23Z</time>
      </trkpt>
      <trkpt lat="46.81315" lon="-2.12379">
        <ele>58</ele>
        <time>2025-05-06T08:02:47Z</time>
      </trkpt>
      <trkpt lat="46.81328" lon="-2.12389">
        <ele>56</ele>
        <time>2025-05-06T08:02:53Z</time>
      </trkpt>
      <trkpt lat="46.81423" lon="-2.12427">
        <ele>60</ele>
        <time>2025-05-06T08:03:33Z</time>
      </trkpt>
      <trkpt lat="46.81441" lon="-2.1244">
        <ele>61</ele>
        <time>2025-05-06T08:03:39Z</time>
      </trkpt>
      <trkpt lat="46.81549" lon="-2.12541">
        <ele>50</ele>
        <time>2025-05-06T08:04:03Z</time>
      </trkpt>
      <trkpt lat="46.81582" lon="-2.12577">
        <ele>53</ele>
        <time>2025-05-06T08:04:12Z</time>
      </trkpt>
      <trkpt lat="46.81609" lon="-2.12617">
        <ele>54</ele>
        <time>2025-05-06T08:04:20Z</time>
      </trkpt>
      <trkpt lat="46.81673" lon="-2.12783">
        <ele>54</ele>
        <time>2025-05-06T08:04:47Z</time>
      </trkpt>
      <trkpt lat="46.8168" lon="-2.12801">
        <ele>54</ele>
        <time>2025-05-06T08:04:50Z</time>
      </trkpt>
      <trkpt lat="46.81807" lon="-2.13016">
        <ele>50</ele>
        <time>2025-05-06T08:05:46Z</time>
      </trkpt>
      <trkpt lat="46.81896" lon="-2.13076">
        <ele>50</ele>
        <time>2025-05-06T08:06:14Z</time>
      </trkpt>
      <trkpt lat="46.81929" lon="-2.13109">
        <ele>51</ele>
        <time>2025-05-06T08:06:25Z</time>
      </trkpt>
      <trkpt lat="46.8201" lon="-2.13276">
        <ele>53</ele>
        <time>2025-05-06T08:07:09Z</time>
      </trkpt>
      <trkpt lat="46.82005" lon="-2.13325">
        <ele>56</ele>
        <time>2025-05-06T08:07:20Z</time>
      </trkpt>
      <trkpt lat="46.82002" lon="-2.13567">
        <ele>57</ele>
        <time>2025-05-06T08:08:20Z</time>
      </trkpt>
      <trkpt lat="46.82038" lon="-2.13706">
        <ele>57</ele>
        <time>2025-05-06T08:08:52Z</time>
      </trkpt>
      <trkpt lat="46.82054" lon="-2.13714">
        <ele>67</ele>
        <time>2025-05-06T08:17:19Z</time>
      </trkpt>
      <trkpt lat="46.82193" lon="-2.1377">
        <ele>55</ele>
        <time>2025-05-06T08:17:58Z</time>
      </trkpt>
      <trkpt lat="46.82255" lon="-2.13794">
        <ele>58</ele>
        <time>2025-05-06T08:18:21Z</time>
      </trkpt>
      <trkpt lat="46.82334" lon="-2.13815">
        <ele>59</ele>
        <time>2025-05-06T08:18:50Z</time>
      </trkpt>
      <trkpt lat="46.82399" lon="-2.1383">
        <ele>61</ele>
        <time>2025-05-06T08:19:44Z</time>
      </trkpt>
      <trkpt lat="46.8258" lon="-2.13883">
        <ele>58</ele>
        <time>2025-05-06T08:20:31Z</time>
      </trkpt>
      <trkpt lat="46.82667" lon="-2.13928">
        <ele>56</ele>
        <time>2025-05-06T08:20:57Z</time>
      </trkpt>
      <trkpt lat="46.82724" lon="-2.13945">
        <ele>61</ele>
        <time>2025-05-06T08:21:16Z</time>
      </trkpt>
      <trkpt lat="46.82745" lon="-2.13947">
        <ele>61</ele>
        <time>2025-05-06T08:21:25Z</time>
      </trkpt>
      <trkpt lat="46.82783" lon="-2.13954">
        <ele>58</ele>
        <time>2025-05-06T08:21:38Z</time>
      </trkpt>
      <trkpt lat="46.82803" lon="-2.13958">
        <ele>58</ele>
        <time>2025-05-06T08:21:44Z</time>
      </trkpt>
      <trkpt lat="46.82828" lon="-2.13962">
        <ele>59</ele>
        <time>2025-05-06T08:21:53Z</time>
      </trkpt>
      <trkpt lat="46.82889" lon="-2.13956">
        <ele>56</ele>
        <time>2025-05-06T08:22:14Z</time>
      </trkpt>
      <trkpt lat="46.82969" lon="-2.13987">
        <ele>52</ele>
        <time>2025-05-06T08:22:39Z</time>
      </trkpt>
      <trkpt lat="46.82987" lon="-2.13989">
        <ele>54</ele>
        <time>2025-05-06T08:22:45Z</time>
      </trkpt>
      <trkpt lat="46.83072" lon="-2.14015">
        <ele>56</ele>
        <time>2025-05-06T08:23:12Z</time>
      </trkpt>
      <trkpt lat="46.83145" lon="-2.13994">
        <ele>58</ele>
        <time>2025-05-06T08:23:42Z</time>
      </trkpt>
      <trkpt lat="46.83158" lon="-2.13982">
        <ele>60</ele>
        <time>2025-05-06T08:23:48Z</time>
      </trkpt>
      <trkpt lat="46.832" lon="-2.1395">
        <ele>59</ele>
        <time>2025-05-06T08:24:04Z</time>
      </trkpt>
      <trkpt lat="46.83313" lon="-2.13874">
        <ele>57</ele>
        <time>2025-05-06T08:24:35Z</time>
      </trkpt>
      <trkpt lat="46.8338" lon="-2.13834">
        <ele>61</ele>
        <time>2025-05-06T08:24:58Z</time>
      </trkpt>
      <trkpt lat="46.83411" lon="-2.13815">
        <ele>54</ele>
        <time>2025-05-06T08:25:07Z</time>
      </trkpt>
      <trkpt lat="46.8343" lon="-2.13814">
        <ele>51</ele>
        <time>2025-05-06T08:25:14Z</time>
      </trkpt>
      <trkpt lat="46.83452" lon="-2.1381">
        <ele>53</ele>
        <time>2025-05-06T08:25:25Z</time>
      </trkpt>
      <trkpt lat="46.83468" lon="-2.1381">
        <ele>56</ele>
        <time>2025-05-06T08:25:32Z</time>
      </trkpt>
      <trkpt lat="46.83564" lon="-2.13806">
        <ele>56</ele>
        <time>2025-05-06T08:26:01Z</time>
      </trkpt>
      <trkpt lat="46.8361" lon="-2.13774">
        <ele>62</ele>
        <time>2025-05-06T08:26:14Z</time>
      </trkpt>
      <trkpt lat="46.83732" lon="-2.13765">
        <ele>56</ele>
        <time>2025-05-06T08:26:55Z</time>
      </trkpt>
      <trkpt lat="46.83805" lon="-2.138">
        <ele>58</ele>
        <time>2025-05-06T08:27:17Z</time>
      </trkpt>
      <trkpt lat="46.83851" lon="-2.13819">
        <ele>58</ele>
        <time>2025-05-06T08:27:29Z</time>
      </trkpt>
      <trkpt lat="46.83924" lon="-2.13861">
        <ele>54</ele>
        <time>2025-05-06T08:27:52Z</time>
      </trkpt>
      <trkpt lat="46.83973" lon="-2.13878">
        <ele>57</ele>
        <time>2025-05-06T08:28:03Z</time>
      </trkpt>
      <trkpt lat="46.84022" lon="-2.13893">
        <ele>55</ele>
        <time>2025-05-06T08:28:17Z</time>
      </trkpt>
      <trkpt lat="46.84053" lon="-2.13903">
        <ele>59</ele>
        <time>2025-05-06T08:28:26Z</time>
      </trkpt>
      <trkpt lat="46.84174" lon="-2.13877">
        <ele>51</ele>
        <time>2025-05-06T08:29:10Z</time>
      </trkpt>
      <trkpt lat="46.84165" lon="-2.13837">
        <ele>49</ele>
        <time>2025-05-06T08:29:18Z</time>
      </trkpt>
      <trkpt lat="46.84161" lon="-2.13791">
        <ele>49</ele>
        <time>2025-05-06T08:29:27Z</time>
      </trkpt>
      <trkpt lat="46.84162" lon="-2.1374">
        <ele>51</ele>
        <time>2025-05-06T08:29:36Z</time>
      </trkpt>
      <trkpt lat="46.84157" lon="-2.13681">
        <ele>51</ele>
        <time>2025-05-06T08:29:47Z</time>
      </trkpt>
      <trkpt lat="46.84175" lon="-2.13476">
        <ele>52</ele>
        <time>2025-05-06T08:30:38Z</time>
      </trkpt>
      <trkpt lat="46.8419" lon="-2.13469">
        <ele>53</ele>
        <time>2025-05-06T08:30:45Z</time>
      </trkpt>
      <trkpt lat="46.84434" lon="-2.13307">
        <ele>57</ele>
        <time>2025-05-06T08:32:03Z</time>
      </trkpt>
      <trkpt lat="46.84452" lon="-2.13289">
        <ele>57</ele>
        <time>2025-05-06T08:32:11Z</time>
      </trkpt>
      <trkpt lat="46.84493" lon="-2.13252">
        <ele>62</ele>
        <time>2025-05-06T08:32:29Z</time>
      </trkpt>
      <trkpt lat="46.84515" lon="-2.13242">
        <ele>61</ele>
        <time>2025-05-06T08:32:36Z</time>
      </trkpt>
      <trkpt lat="46.84622" lon="-2.13181">
        <ele>55</ele>
        <time>2025-05-06T08:33:11Z</time>
      </trkpt>
      <trkpt lat="46.84649" lon="-2.13151">
        <ele>60</ele>
        <time>2025-05-06T08:33:42Z</time>
      </trkpt>
      <trkpt lat="46.84674" lon="-2.131">
        <ele>57</ele>
        <time>2025-05-06T08:33:54Z</time>
      </trkpt>
      <trkpt lat="46.84686" lon="-2.13079">
        <ele>54</ele>
        <time>2025-05-06T08:33:59Z</time>
      </trkpt>
      <trkpt lat="46.84713" lon="-2.13067">
        <ele>56</ele>
        <time>2025-05-06T08:34:07Z</time>
      </trkpt>
      <trkpt lat="46.84959" lon="-2.12933">
        <ele>58</ele>
        <time>2025-05-06T08:35:23Z</time>
      </trkpt>
      <trkpt lat="46.84971" lon="-2.12914">
        <ele>53</ele>
        <time>2025-05-06T08:35:31Z</time>
      </trkpt>
      <trkpt lat="46.84996" lon="-2.12819">
        <ele>51</ele>
        <time>2025-05-06T08:36:36Z</time>
      </trkpt>
      <trkpt lat="46.85021" lon="-2.12798">
        <ele>51</ele>
        <time>2025-05-06T08:36:44Z</time>
      </trkpt>
      <trkpt lat="46.8504" lon="-2.12781">
        <ele>50</ele>
        <time>2025-05-06T08:36:50Z</time>
      </trkpt>
      <trkpt lat="46.85078" lon="-2.12741">
        <ele>52</ele>
        <time>2025-05-06T08:37:02Z</time>
      </trkpt>
      <trkpt lat="46.85121" lon="-2.12712">
        <ele>50</ele>
        <time>2025-05-06T08:37:14Z</time>
      </trkpt>
      <trkpt lat="46.85142" lon="-2.12698">
        <ele>49</ele>
        <time>2025-05-06T08:37:20Z</time>
      </trkpt>
      <trkpt lat="46.85173" lon="-2.12676">
        <ele>48</ele>
        <time>2025-05-06T08:37:29Z</time>
      </trkpt>
      <trkpt lat="46.85194" lon="-2.12648">
        <ele>48</ele>
        <time>2025-05-06T08:37:36Z</time>
      </trkpt>
      <trkpt lat="46.85203" lon="-2.12629">
        <ele>49</ele>
        <time>2025-05-06T08:37:40Z</time>
      </trkpt>
      <trkpt lat="46.85216" lon="-2.126">
        <ele>48</ele>
        <time>2025-05-06T08:37:46Z</time>
      </trkpt>
      <trkpt lat="46.85237" lon="-2.12551">
        <ele>47</ele>
        <time>2025-05-06T08:37:55Z</time>
      </trkpt>
      <trkpt lat="46.85272" lon="-2.12453">
        <ele>48</ele>
        <time>2025-05-06T08:38:13Z</time>
      </trkpt>
      <trkpt lat="46.85282" lon="-2.12426">
        <ele>48</ele>
        <time>2025-05-06T08:38:18Z</time>
      </trkpt>
      <trkpt lat="46.8529" lon="-2.12399">
        <ele>48</ele>
        <time>2025-05-06T08:38:23Z</time>
      </trkpt>
      <trkpt lat="46.85299" lon="-2.12371">
        <ele>48</ele>
        <time>2025-05-06T08:38:28Z</time>
      </trkpt>
      <trkpt lat="46.85317" lon="-2.12317">
        <ele>50</ele>
        <time>2025-05-06T08:38:38Z</time>
      </trkpt>
      <trkpt lat="46.85341" lon="-2.12249">
        <ele>48</ele>
        <time>2025-05-06T08:38:51Z</time>
      </trkpt>
      <trkpt lat="46.85356" lon="-2.12214">
        <ele>48</ele>
        <time>2025-05-06T08:38:58Z</time>
      </trkpt>
      <trkpt lat="46.85372" lon="-2.12187">
        <ele>49</ele>
        <time>2025-05-06T08:39:04Z</time>
      </trkpt>
      <trkpt lat="46.85385" lon="-2.12171">
        <ele>48</ele>
        <time>2025-05-06T08:39:08Z</time>
      </trkpt>
      <trkpt lat="46.85441" lon="-2.12104">
        <ele>48</ele>
        <time>2025-05-06T08:39:24Z</time>
      </trkpt>
      <trkpt lat="46.85468" lon="-2.12053">
        <ele>49</ele>
        <time>2025-05-06T08:39:34Z</time>
      </trkpt>
      <trkpt lat="46.85478" lon="-2.12026">
        <ele>48</ele>
        <time>2025-05-06T08:39:39Z</time>
      </trkpt>
      <trkpt lat="46.85494" lon="-2.11962">
        <ele>48</ele>
        <time>2025-05-06T08:39:50Z</time>
      </trkpt>
      <trkpt lat="46.85528" lon="-2.11916">
        <ele>48</ele>
        <time>2025-05-06T08:40:01Z</time>
      </trkpt>
      <trkpt lat="46.85541" lon="-2.11907">
        <ele>48</ele>
        <time>2025-05-06T08:40:05Z</time>
      </trkpt>
      <trkpt lat="46.85556" lon="-2.11891">
        <ele>50</ele>
        <time>2025-05-06T08:40:10Z</time>
      </trkpt>
      <trkpt lat="46.8559" lon="-2.11852">
        <ele>51</ele>
        <time>2025-05-06T08:40:21Z</time>
      </trkpt>
      <trkpt lat="46.8561" lon="-2.11835">
        <ele>51</ele>
        <time>2025-05-06T08:40:27Z</time>
      </trkpt>
      <trkpt lat="46.85624" lon="-2.11828">
        <ele>50</ele>
        <time>2025-05-06T08:40:31Z</time>
      </trkpt>
      <trkpt lat="46.85639" lon="-2.11821">
        <ele>50</ele>
        <time>2025-05-06T08:40:35Z</time>
      </trkpt>
      <trkpt lat="46.85662" lon="-2.11816">
        <ele>51</ele>
        <time>2025-05-06T08:40:41Z</time>
      </trkpt>
      <trkpt lat="46.85685" lon="-2.11813">
        <ele>52</ele>
        <time>2025-05-06T08:40:47Z</time>
      </trkpt>
      <trkpt lat="46.85732" lon="-2.11809">
        <ele>52</ele>
        <time>2025-05-06T08:40:59Z</time>
      </trkpt>
      <trkpt lat="46.85762" lon="-2.11792">
        <ele>54</ele>
        <time>2025-05-06T08:41:09Z</time>
      </trkpt>
      <trkpt lat="46.85792" lon="-2.11771">
        <ele>52</ele>
        <time>2025-05-06T08:41:19Z</time>
      </trkpt>
      <trkpt lat="46.85825" lon="-2.11758">
        <ele>54</ele>
        <time>2025-05-06T08:41:28Z</time>
      </trkpt>
      <trkpt lat="46.85839" lon="-2.11756">
        <ele>54</ele>
        <time>2025-05-06T08:41:32Z</time>
      </trkpt>
      <trkpt lat="46.85906" lon="-2.11759">
        <ele>55</ele>
        <time>2025-05-06T08:41:51Z</time>
      </trkpt>
      <trkpt lat="46.85979" lon="-2.118">
        <ele>52</ele>
        <time>2025-05-06T08:42:11Z</time>
      </trkpt>
      <trkpt lat="46.86015" lon="-2.11832">
        <ele>50</ele>
        <time>2025-05-06T08:42:20Z</time>
      </trkpt>
      <trkpt lat="46.86083" lon="-2.11873">
        <ele>50</ele>
        <time>2025-05-06T08:42:35Z</time>
      </trkpt>
      <trkpt lat="46.86137" lon="-2.1189">
        <ele>50</ele>
        <time>2025-05-06T08:42:46Z</time>
      </trkpt>
      <trkpt lat="46.86151" lon="-2.11904">
        <ele>50</ele>
        <time>2025-05-06T08:42:50Z</time>
      </trkpt>
      <trkpt lat="46.86168" lon="-2.11918">
        <ele>50</ele>
        <time>2025-05-06T08:42:55Z</time>
      </trkpt>
      <trkpt lat="46.86226" lon="-2.11961">
        <ele>52</ele>
        <time>2025-05-06T08:43:11Z</time>
      </trkpt>
      <trkpt lat="46.8624" lon="-2.11969">
        <ele>53</ele>
        <time>2025-05-06T08:43:15Z</time>
      </trkpt>
      <trkpt lat="46.86318" lon="-2.11998">
        <ele>54</ele>
        <time>2025-05-06T08:43:37Z</time>
      </trkpt>
      <trkpt lat="46.86341" lon="-2.12009">
        <ele>53</ele>
        <time>2025-05-06T08:43:44Z</time>
      </trkpt>
      <trkpt lat="46.86362" lon="-2.12016">
        <ele>54</ele>
        <time>2025-05-06T08:43:50Z</time>
      </trkpt>
      <trkpt lat="46.8639" lon="-2.12025">
        <ele>55</ele>
        <time>2025-05-06T08:43:58Z</time>
      </trkpt>
      <trkpt lat="46.86445" lon="-2.1204">
        <ele>53</ele>
        <time>2025-05-06T08:44:12Z</time>
      </trkpt>
      <trkpt lat="46.86481" lon="-2.1205">
        <ele>52</ele>
        <time>2025-05-06T08:44:21Z</time>
      </trkpt>
      <trkpt lat="46.86512" lon="-2.12063">
        <ele>52</ele>
        <time>2025-05-06T08:44:29Z</time>
      </trkpt>
      <trkpt lat="46.8654" lon="-2.12081">
        <ele>51</ele>
        <time>2025-05-06T08:44:37Z</time>
      </trkpt>
      <trkpt lat="46.86608" lon="-2.12136">
        <ele>48</ele>
        <time>2025-05-06T08:44:56Z</time>
      </trkpt>
      <trkpt lat="46.86627" lon="-2.12153">
        <ele>47</ele>
        <time>2025-05-06T08:45:01Z</time>
      </trkpt>
      <trkpt lat="46.86651" lon="-2.12174">
        <ele>47</ele>
        <time>2025-05-06T08:45:08Z</time>
      </trkpt>
      <trkpt lat="46.86729" lon="-2.12256">
        <ele>45</ele>
        <time>2025-05-06T08:45:30Z</time>
      </trkpt>
      <trkpt lat="46.86758" lon="-2.12291">
        <ele>47</ele>
        <time>2025-05-06T08:45:39Z</time>
      </trkpt>
      <trkpt lat="46.86772" lon="-2.1231">
        <ele>49</ele>
        <time>2025-05-06T08:45:44Z</time>
      </trkpt>
      <trkpt lat="46.86783" lon="-2.12325">
        <ele>49</ele>
        <time>2025-05-06T08:45:48Z</time>
      </trkpt>
      <trkpt lat="46.86801" lon="-2.12356">
        <ele>46</ele>
        <time>2025-05-06T08:45:55Z</time>
      </trkpt>
      <trkpt lat="46.86814" lon="-2.12378">
        <ele>47</ele>
        <time>2025-05-06T08:46:00Z</time>
      </trkpt>
      <trkpt lat="46.86843" lon="-2.12423">
        <ele>48</ele>
        <time>2025-05-06T08:46:10Z</time>
      </trkpt>
      <trkpt lat="46.86888" lon="-2.12471">
        <ele>50</ele>
        <time>2025-05-06T08:46:23Z</time>
      </trkpt>
      <trkpt lat="46.8695" lon="-2.12448">
        <ele>51</ele>
        <time>2025-05-06T08:46:38Z</time>
      </trkpt>
      <trkpt lat="46.86971" lon="-2.12423">
        <ele>49</ele>
        <time>2025-05-06T08:46:44Z</time>
      </trkpt>
      <trkpt lat="46.87003" lon="-2.1239">
        <ele>49</ele>
        <time>2025-05-06T08:46:53Z</time>
      </trkpt>
      <trkpt lat="46.8703" lon="-2.12369">
        <ele>51</ele>
        <time>2025-05-06T08:47:00Z</time>
      </trkpt>
      <trkpt lat="46.87052" lon="-2.12354">
        <ele>53</ele>
        <time>2025-05-06T08:47:06Z</time>
      </trkpt>
      <trkpt lat="46.872" lon="-2.12362">
        <ele>52</ele>
        <time>2025-05-06T08:47:43Z</time>
      </trkpt>
      <trkpt lat="46.87239" lon="-2.12381">
        <ele>54</ele>
        <time>2025-05-06T08:47:53Z</time>
      </trkpt>
      <trkpt lat="46.87328" lon="-2.12416">
        <ele>52</ele>
        <time>2025-05-06T08:48:15Z</time>
      </trkpt>
      <trkpt lat="46.87358" lon="-2.12417">
        <ele>52</ele>
        <time>2025-05-06T08:48:22Z</time>
      </trkpt>
      <trkpt lat="46.8738" lon="-2.12412">
        <ele>50</ele>
        <time>2025-05-06T08:48:28Z</time>
      </trkpt>
      <trkpt lat="46.87464" lon="-2.12336">
        <ele>51</ele>
        <time>2025-05-06T08:48:51Z</time>
      </trkpt>
      <trkpt lat="46.87478" lon="-2.1233">
        <ele>52</ele>
        <time>2025-05-06T08:48:55Z</time>
      </trkpt>
      <trkpt lat="46.87501" lon="-2.12327">
        <ele>55</ele>
        <time>2025-05-06T08:49:01Z</time>
      </trkpt>
      <trkpt lat="46.87555" lon="-2.12359">
        <ele>50</ele>
        <time>2025-05-06T08:49:15Z</time>
      </trkpt>
      <trkpt lat="46.87603" lon="-2.12401">
        <ele>49</ele>
        <time>2025-05-06T08:49:28Z</time>
      </trkpt>
      <trkpt lat="46.87639" lon="-2.12418">
        <ele>53</ele>
        <time>2025-05-06T08:49:37Z</time>
      </trkpt>
      <trkpt lat="46.87735" lon="-2.12459">
        <ele>53</ele>
        <time>2025-05-06T08:50:07Z</time>
      </trkpt>
      <trkpt lat="46.87772" lon="-2.12464">
        <ele>54</ele>
        <time>2025-05-06T08:50:20Z</time>
      </trkpt>
      <trkpt lat="46.87798" lon="-2.12487">
        <ele>51</ele>
        <time>2025-05-06T08:50:33Z</time>
      </trkpt>
      <trkpt lat="46.87809" lon="-2.12505">
        <ele>57</ele>
        <time>2025-05-06T08:51:54Z</time>
      </trkpt>
      <trkpt lat="46.87828" lon="-2.12506">
        <ele>61</ele>
        <time>2025-05-06T08:52:51Z</time>
      </trkpt>
      <trkpt lat="46.87849" lon="-2.12511">
        <ele>60</ele>
        <time>2025-05-06T08:53:07Z</time>
      </trkpt>
      <trkpt lat="46.87859" lon="-2.12544">
        <ele>64</ele>
        <time>2025-05-06T08:53:45Z</time>
      </trkpt>
      <trkpt lat="46.87862" lon="-2.12581">
        <ele>69</ele>
        <time>2025-05-06T08:54:08Z</time>
      </trkpt>
      <trkpt lat="46.87865" lon="-2.12603">
        <ele>71</ele>
        <time>2025-05-06T08:54:38Z</time>
      </trkpt>
      <trkpt lat="46.87854" lon="-2.12691">
        <ele>58</ele>
        <time>2025-05-06T08:55:10Z</time>
      </trkpt>
      <trkpt lat="46.87848" lon="-2.12859">
        <ele>52</ele>
        <time>2025-05-06T08:55:32Z</time>
      </trkpt>
      <trkpt lat="46.87847" lon="-2.1288">
        <ele>53</ele>
        <time>2025-05-06T08:55:36Z</time>
      </trkpt>
      <trkpt lat="46.87855" lon="-2.12973">
        <ele>56</ele>
        <time>2025-05-06T08:55:49Z</time>
      </trkpt>
      <trkpt lat="46.87856" lon="-2.13006">
        <ele>62</ele>
        <time>2025-05-06T08:56:15Z</time>
      </trkpt>
      <trkpt lat="46.87852" lon="-2.13029">
        <ele>67</ele>
        <time>2025-05-06T08:56:30Z</time>
      </trkpt>
      <trkpt lat="46.87815" lon="-2.13101">
        <ele>57</ele>
        <time>2025-05-06T08:56:53Z</time>
      </trkpt>
      <trkpt lat="46.87845" lon="-2.133">
        <ele>48</ele>
        <time>2025-05-06T08:57:17Z</time>
      </trkpt>
      <trkpt lat="46.87856" lon="-2.13363">
        <ele>51</ele>
        <time>2025-05-06T08:57:24Z</time>
      </trkpt>
      <trkpt lat="46.87857" lon="-2.13386">
        <ele>52</ele>
        <time>2025-05-06T08:57:27Z</time>
      </trkpt>
      <trkpt lat="46.87863" lon="-2.13423">
        <ele>53</ele>
        <time>2025-05-06T08:57:33Z</time>
      </trkpt>
      <trkpt lat="46.87872" lon="-2.13487">
        <ele>52</ele>
        <time>2025-05-06T08:57:46Z</time>
      </trkpt>
      <trkpt lat="46.87878" lon="-2.13519">
        <ele>53</ele>
        <time>2025-05-06T08:57:58Z</time>
      </trkpt>
      <trkpt lat="46.87874" lon="-2.13601">
        <ele>56</ele>
        <time>2025-05-06T09:16:03Z</time>
      </trkpt>
      <trkpt lat="46.87883" lon="-2.1365">
        <ele>52</ele>
        <time>2025-05-06T09:16:11Z</time>
      </trkpt>
      <trkpt lat="46.87903" lon="-2.13836">
        <ele>51</ele>
        <time>2025-05-06T09:16:40Z</time>
      </trkpt>
      <trkpt lat="46.87902" lon="-2.13877">
        <ele>52</ele>
        <time>2025-05-06T09:16:47Z</time>
      </trkpt>
      <trkpt lat="46.8791" lon="-2.14012">
        <ele>52</ele>
        <time>2025-05-06T09:17:11Z</time>
      </trkpt>
      <trkpt lat="46.87913" lon="-2.1411">
        <ele>52</ele>
        <time>2025-05-06T09:17:30Z</time>
      </trkpt>
      <trkpt lat="46.87931" lon="-2.14181">
        <ele>51</ele>
        <time>2025-05-06T09:17:45Z</time>
      </trkpt>
      <trkpt lat="46.87996" lon="-2.1421">
        <ele>54</ele>
        <time>2025-05-06T09:18:15Z</time>
      </trkpt>
      <trkpt lat="46.88042" lon="-2.14215">
        <ele>54</ele>
        <time>2025-05-06T09:18:29Z</time>
      </trkpt>
      <trkpt lat="46.8807" lon="-2.1422">
        <ele>55</ele>
        <time>2025-05-06T09:18:38Z</time>
      </trkpt>
      <trkpt lat="46.88084" lon="-2.14222">
        <ele>54</ele>
        <time>2025-05-06T09:18:43Z</time>
      </trkpt>
      <trkpt lat="46.88119" lon="-2.14231">
        <ele>55</ele>
        <time>2025-05-06T09:18:54Z</time>
      </trkpt>
      <trkpt lat="46.88209" lon="-2.14238">
        <ele>51</ele>
        <time>2025-05-06T09:19:15Z</time>
      </trkpt>
      <trkpt lat="46.8823" lon="-2.1424">
        <ele>50</ele>
        <time>2025-05-06T09:19:19Z</time>
      </trkpt>
      <trkpt lat="46.88251" lon="-2.14241">
        <ele>49</ele>
        <time>2025-05-06T09:19:23Z</time>
      </trkpt>
      <trkpt lat="46.88265" lon="-2.14243">
        <ele>49</ele>
        <time>2025-05-06T09:19:26Z</time>
      </trkpt>
      <trkpt lat="46.88309" lon="-2.1425">
        <ele>47</ele>
        <time>2025-05-06T09:19:36Z</time>
      </trkpt>
      <trkpt lat="46.8833" lon="-2.14256">
        <ele>49</ele>
        <time>2025-05-06T09:19:41Z</time>
      </trkpt>
      <trkpt lat="46.88346" lon="-2.14305">
        <ele>50</ele>
        <time>2025-05-06T09:19:50Z</time>
      </trkpt>
      <trkpt lat="46.88352" lon="-2.14346">
        <ele>48</ele>
        <time>2025-05-06T09:19:57Z</time>
      </trkpt>
      <trkpt lat="46.88358" lon="-2.1438">
        <ele>47</ele>
        <time>2025-05-06T09:20:03Z</time>
      </trkpt>
      <trkpt lat="46.88362" lon="-2.14401">
        <ele>46</ele>
        <time>2025-05-06T09:20:07Z</time>
      </trkpt>
      <trkpt lat="46.88368" lon="-2.1444">
        <ele>45</ele>
        <time>2025-05-06T09:20:14Z</time>
      </trkpt>
      <trkpt lat="46.88378" lon="-2.14514">
        <ele>49</ele>
        <time>2025-05-06T09:20:26Z</time>
      </trkpt>
      <trkpt lat="46.8839" lon="-2.14619">
        <ele>53</ele>
        <time>2025-05-06T09:20:44Z</time>
      </trkpt>
      <trkpt lat="46.88392" lon="-2.1466">
        <ele>52</ele>
        <time>2025-05-06T09:20:51Z</time>
      </trkpt>
      <trkpt lat="46.88392" lon="-2.14708">
        <ele>53</ele>
        <time>2025-05-06T09:21:01Z</time>
      </trkpt>
      <trkpt lat="46.88396" lon="-2.14767">
        <ele>51</ele>
        <time>2025-05-06T09:21:11Z</time>
      </trkpt>
      <trkpt lat="46.88406" lon="-2.14815">
        <ele>52</ele>
        <time>2025-05-06T09:21:19Z</time>
      </trkpt>
      <trkpt lat="46.88413" lon="-2.14842">
        <ele>53</ele>
        <time>2025-05-06T09:21:24Z</time>
      </trkpt>
      <trkpt lat="46.88422" lon="-2.14875">
        <ele>53</ele>
        <time>2025-05-06T09:21:30Z</time>
      </trkpt>
      <trkpt lat="46.8846" lon="-2.14916">
        <ele>57</ele>
        <time>2025-05-06T09:21:57Z</time>
      </trkpt>
      <trkpt lat="46.88456" lon="-2.14897">
        <ele>58</ele>
        <time>2025-05-06T09:24:46Z</time>
      </trkpt>
      <trkpt lat="46.88445" lon="-2.1488">
        <ele>59</ele>
        <time>2025-05-06T09:24:56Z</time>
      </trkpt>
      <trkpt lat="46.88469" lon="-2.14902">
        <ele>56</ele>
        <time>2025-05-06T09:25:26Z</time>
      </trkpt>
      <trkpt lat="46.8848" lon="-2.14924">
        <ele>57</ele>
        <time>2025-05-06T09:25:31Z</time>
      </trkpt>
      <trkpt lat="46.88495" lon="-2.14948">
        <ele>58</ele>
        <time>2025-05-06T09:25:37Z</time>
      </trkpt>
      <trkpt lat="46.88512" lon="-2.14971">
        <ele>59</ele>
        <time>2025-05-06T09:25:43Z</time>
      </trkpt>
      <trkpt lat="46.88525" lon="-2.14986">
        <ele>59</ele>
        <time>2025-05-06T09:25:47Z</time>
      </trkpt>
      <trkpt lat="46.88538" lon="-2.14999">
        <ele>58</ele>
        <time>2025-05-06T09:25:51Z</time>
      </trkpt>
      <trkpt lat="46.88551" lon="-2.15011">
        <ele>57</ele>
        <time>2025-05-06T09:25:55Z</time>
      </trkpt>
      <trkpt lat="46.88565" lon="-2.15022">
        <ele>57</ele>
        <time>2025-05-06T09:25:59Z</time>
      </trkpt>
      <trkpt lat="46.88587" lon="-2.15037">
        <ele>57</ele>
        <time>2025-05-06T09:26:05Z</time>
      </trkpt>
      <trkpt lat="46.88621" lon="-2.15055">
        <ele>56</ele>
        <time>2025-05-06T09:26:14Z</time>
      </trkpt>
      <trkpt lat="46.8864" lon="-2.15062">
        <ele>57</ele>
        <time>2025-05-06T09:26:19Z</time>
      </trkpt>
      <trkpt lat="46.8869" lon="-2.1507">
        <ele>60</ele>
        <time>2025-05-06T09:26:31Z</time>
      </trkpt>
      <trkpt lat="46.8871" lon="-2.15069">
        <ele>60</ele>
        <time>2025-05-06T09:26:36Z</time>
      </trkpt>
      <trkpt lat="46.8873" lon="-2.15068">
        <ele>61</ele>
        <time>2025-05-06T09:26:41Z</time>
      </trkpt>
      <trkpt lat="46.88748" lon="-2.15063">
        <ele>61</ele>
        <time>2025-05-06T09:26:46Z</time>
      </trkpt>
      <trkpt lat="46.8877" lon="-2.15058">
        <ele>60</ele>
        <time>2025-05-06T09:26:53Z</time>
      </trkpt>
      <trkpt lat="46.88789" lon="-2.15054">
        <ele>61</ele>
        <time>2025-05-06T09:26:59Z</time>
      </trkpt>
      <trkpt lat="46.88845" lon="-2.15041">
        <ele>65</ele>
        <time>2025-05-06T09:27:17Z</time>
      </trkpt>
      <trkpt lat="46.88862" lon="-2.15037">
        <ele>66</ele>
        <time>2025-05-06T09:27:23Z</time>
      </trkpt>
      <trkpt lat="46.88882" lon="-2.15033">
        <ele>66</ele>
        <time>2025-05-06T09:27:31Z</time>
      </trkpt>
      <trkpt lat="46.88896" lon="-2.1503">
        <ele>67</ele>
        <time>2025-05-06T09:27:37Z</time>
      </trkpt>
      <trkpt lat="46.8892" lon="-2.15024">
        <ele>67</ele>
        <time>2025-05-06T09:27:48Z</time>
      </trkpt>
      <trkpt lat="46.88941" lon="-2.1502">
        <ele>71</ele>
        <time>2025-05-06T09:27:59Z</time>
      </trkpt>
      <trkpt lat="46.88958" lon="-2.15016">
        <ele>73</ele>
        <time>2025-05-06T09:28:08Z</time>
      </trkpt>
      <trkpt lat="46.88975" lon="-2.15013">
        <ele>74</ele>
        <time>2025-05-06T09:28:17Z</time>
      </trkpt>
      <trkpt lat="46.88992" lon="-2.1501">
        <ele>76</ele>
        <time>2025-05-06T09:28:25Z</time>
      </trkpt>
      <trkpt lat="46.89006" lon="-2.15007">
        <ele>77</ele>
        <time>2025-05-06T09:28:32Z</time>
      </trkpt>
      <trkpt lat="46.89023" lon="-2.15003">
        <ele>77</ele>
        <time>2025-05-06T09:28:40Z</time>
      </trkpt>
      <trkpt lat="46.89038" lon="-2.15">
        <ele>76</ele>
        <time>2025-05-06T09:28:48Z</time>
      </trkpt>
      <trkpt lat="46.89053" lon="-2.14998">
        <ele>77</ele>
        <time>2025-05-06T09:28:56Z</time>
      </trkpt>
      <trkpt lat="46.89067" lon="-2.14993">
        <ele>77</ele>
        <time>2025-05-06T09:29:03Z</time>
      </trkpt>
      <trkpt lat="46.89083" lon="-2.14992">
        <ele>77</ele>
        <time>2025-05-06T09:29:11Z</time>
      </trkpt>
      <trkpt lat="46.89098" lon="-2.14987">
        <ele>79</ele>
        <time>2025-05-06T09:29:19Z</time>
      </trkpt>
      <trkpt lat="46.89112" lon="-2.14984">
        <ele>80</ele>
        <time>2025-05-06T09:29:27Z</time>
      </trkpt>
      <trkpt lat="46.89134" lon="-2.1498">
        <ele>81</ele>
        <time>2025-05-06T09:29:38Z</time>
      </trkpt>
      <trkpt lat="46.8915" lon="-2.14976">
        <ele>80</ele>
        <time>2025-05-06T09:29:46Z</time>
      </trkpt>
      <trkpt lat="46.89168" lon="-2.14972">
        <ele>82</ele>
        <time>2025-05-06T09:29:56Z</time>
      </trkpt>
      <trkpt lat="46.89183" lon="-2.14969">
        <ele>84</ele>
        <time>2025-05-06T09:30:04Z</time>
      </trkpt>
      <trkpt lat="46.89236" lon="-2.14955">
        <ele>81</ele>
        <time>2025-05-06T09:32:49Z</time>
      </trkpt>
      <trkpt lat="46.89269" lon="-2.14949">
        <ele>80</ele>
        <time>2025-05-06T09:33:01Z</time>
      </trkpt>
      <trkpt lat="46.89287" lon="-2.14944">
        <ele>80</ele>
        <time>2025-05-06T09:33:08Z</time>
      </trkpt>
      <trkpt lat="46.89319" lon="-2.14937">
        <ele>76</ele>
        <time>2025-05-06T09:33:18Z</time>
      </trkpt>
      <trkpt lat="46.89364" lon="-2.14926">
        <ele>73</ele>
        <time>2025-05-06T09:33:30Z</time>
      </trkpt>
      <trkpt lat="46.89404" lon="-2.14917">
        <ele>70</ele>
        <time>2025-05-06T09:33:40Z</time>
      </trkpt>
      <trkpt lat="46.89423" lon="-2.14912">
        <ele>69</ele>
        <time>2025-05-06T09:33:45Z</time>
      </trkpt>
      <trkpt lat="46.89442" lon="-2.14908">
        <ele>68</ele>
        <time>2025-05-06T09:33:50Z</time>
      </trkpt>
      <trkpt lat="46.89475" lon="-2.14899">
        <ele>67</ele>
        <time>2025-05-06T09:33:59Z</time>
      </trkpt>
      <trkpt lat="46.89594" lon="-2.14903">
        <ele>62</ele>
        <time>2025-05-06T09:34:19Z</time>
      </trkpt>
      <trkpt lat="46.89616" lon="-2.14907">
        <ele>61</ele>
        <time>2025-05-06T09:34:22Z</time>
      </trkpt>
      <trkpt lat="46.89655" lon="-2.14921">
        <ele>59</ele>
        <time>2025-05-06T09:34:27Z</time>
      </trkpt>
      <trkpt lat="46.89669" lon="-2.14926">
        <ele>58</ele>
        <time>2025-05-06T09:34:29Z</time>
      </trkpt>
      <trkpt lat="46.89687" lon="-2.14935">
        <ele>58</ele>
        <time>2025-05-06T09:34:32Z</time>
      </trkpt>
      <trkpt lat="46.89704" lon="-2.14944">
        <ele>56</ele>
        <time>2025-05-06T09:34:35Z</time>
      </trkpt>
      <trkpt lat="46.89721" lon="-2.14953">
        <ele>55</ele>
        <time>2025-05-06T09:34:38Z</time>
      </trkpt>
      <trkpt lat="46.89737" lon="-2.14961">
        <ele>55</ele>
        <time>2025-05-06T09:34:41Z</time>
      </trkpt>
      <trkpt lat="46.89766" lon="-2.14976">
        <ele>55</ele>
        <time>2025-05-06T09:34:46Z</time>
      </trkpt>
      <trkpt lat="46.89803" lon="-2.14995">
        <ele>55</ele>
        <time>2025-05-06T09:34:53Z</time>
      </trkpt>
      <trkpt lat="46.89828" lon="-2.14978">
        <ele>54</ele>
        <time>2025-05-06T09:35:01Z</time>
      </trkpt>
      <trkpt lat="46.89848" lon="-2.1499">
        <ele>53</ele>
        <time>2025-05-06T09:35:09Z</time>
      </trkpt>
      <trkpt lat="46.89889" lon="-2.15028">
        <ele>55</ele>
        <time>2025-05-06T09:36:25Z</time>
      </trkpt>
      <trkpt lat="46.89942" lon="-2.15057">
        <ele>55</ele>
        <time>2025-05-06T09:36:40Z</time>
      </trkpt>
      <trkpt lat="46.89978" lon="-2.15055">
        <ele>54</ele>
        <time>2025-05-06T09:36:50Z</time>
      </trkpt>
      <trkpt lat="46.89998" lon="-2.15047">
        <ele>54</ele>
        <time>2025-05-06T09:36:56Z</time>
      </trkpt>
      <trkpt lat="46.90037" lon="-2.15086">
        <ele>54</ele>
        <time>2025-05-06T09:37:12Z</time>
      </trkpt>
      <trkpt lat="46.90066" lon="-2.15191">
        <ele>53</ele>
        <time>2025-05-06T09:37:38Z</time>
      </trkpt>
      <trkpt lat="46.90093" lon="-2.15217">
        <ele>53</ele>
        <time>2025-05-06T09:37:45Z</time>
      </trkpt>
      <trkpt lat="46.90111" lon="-2.15236">
        <ele>53</ele>
        <time>2025-05-06T09:37:50Z</time>
      </trkpt>
      <trkpt lat="46.90128" lon="-2.15255">
        <ele>53</ele>
        <time>2025-05-06T09:37:55Z</time>
      </trkpt>
      <trkpt lat="46.90173" lon="-2.15308">
        <ele>52</ele>
        <time>2025-05-06T09:38:08Z</time>
      </trkpt>
      <trkpt lat="46.90194" lon="-2.15337">
        <ele>50</ele>
        <time>2025-05-06T09:38:14Z</time>
      </trkpt>
      <trkpt lat="46.90232" lon="-2.15393">
        <ele>52</ele>
        <time>2025-05-06T09:38:25Z</time>
      </trkpt>
      <trkpt lat="46.90242" lon="-2.15408">
        <ele>51</ele>
        <time>2025-05-06T09:38:28Z</time>
      </trkpt>
      <trkpt lat="46.90255" lon="-2.15426">
        <ele>51</ele>
        <time>2025-05-06T09:38:32Z</time>
      </trkpt>
      <trkpt lat="46.9028" lon="-2.15452">
        <ele>51</ele>
        <time>2025-05-06T09:38:39Z</time>
      </trkpt>
      <trkpt lat="46.90296" lon="-2.15469">
        <ele>52</ele>
        <time>2025-05-06T09:38:44Z</time>
      </trkpt>
      <trkpt lat="46.90335" lon="-2.15504">
        <ele>51</ele>
        <time>2025-05-06T09:38:55Z</time>
      </trkpt>
      <trkpt lat="46.90349" lon="-2.15518">
        <ele>51</ele>
        <time>2025-05-06T09:38:59Z</time>
      </trkpt>
      <trkpt lat="46.90378" lon="-2.15556">
        <ele>52</ele>
        <time>2025-05-06T09:39:08Z</time>
      </trkpt>
      <trkpt lat="46.90399" lon="-2.15591">
        <ele>52</ele>
        <time>2025-05-06T09:39:15Z</time>
      </trkpt>
      <trkpt lat="46.90415" lon="-2.15617">
        <ele>52</ele>
        <time>2025-05-06T09:39:20Z</time>
      </trkpt>
      <trkpt lat="46.90429" lon="-2.15635">
        <ele>51</ele>
        <time>2025-05-06T09:39:24Z</time>
      </trkpt>
      <trkpt lat="46.90451" lon="-2.15659">
        <ele>50</ele>
        <time>2025-05-06T09:39:30Z</time>
      </trkpt>
      <trkpt lat="46.90482" lon="-2.15685">
        <ele>49</ele>
        <time>2025-05-06T09:39:38Z</time>
      </trkpt>
      <trkpt lat="46.90573" lon="-2.15732">
        <ele>52</ele>
        <time>2025-05-06T09:40:02Z</time>
      </trkpt>
      <trkpt lat="46.90602" lon="-2.15747">
        <ele>52</ele>
        <time>2025-05-06T09:40:10Z</time>
      </trkpt>
      <trkpt lat="46.90616" lon="-2.15755">
        <ele>52</ele>
        <time>2025-05-06T09:40:14Z</time>
      </trkpt>
      <trkpt lat="46.90632" lon="-2.15764">
        <ele>55</ele>
        <time>2025-05-06T09:40:19Z</time>
      </trkpt>
      <trkpt lat="46.90717" lon="-2.15816">
        <ele>57</ele>
        <time>2025-05-06T09:40:43Z</time>
      </trkpt>
      <trkpt lat="46.90803" lon="-2.15866">
        <ele>54</ele>
        <time>2025-05-06T09:41:05Z</time>
      </trkpt>
      <trkpt lat="46.90819" lon="-2.15873">
        <ele>54</ele>
        <time>2025-05-06T09:41:09Z</time>
      </trkpt>
      <trkpt lat="46.90848" lon="-2.15885">
        <ele>51</ele>
        <time>2025-05-06T09:41:16Z</time>
      </trkpt>
      <trkpt lat="46.90869" lon="-2.15894">
        <ele>50</ele>
        <time>2025-05-06T09:41:21Z</time>
      </trkpt>
      <trkpt lat="46.90908" lon="-2.1591">
        <ele>51</ele>
        <time>2025-05-06T09:41:30Z</time>
      </trkpt>
      <trkpt lat="46.90929" lon="-2.15919">
        <ele>52</ele>
        <time>2025-05-06T09:41:35Z</time>
      </trkpt>
      <trkpt lat="46.90949" lon="-2.15928">
        <ele>53</ele>
        <time>2025-05-06T09:41:40Z</time>
      </trkpt>
      <trkpt lat="46.90968" lon="-2.15936">
        <ele>52</ele>
        <time>2025-05-06T09:41:45Z</time>
      </trkpt>
      <trkpt lat="46.90991" lon="-2.15945">
        <ele>51</ele>
        <time>2025-05-06T09:41:51Z</time>
      </trkpt>
      <trkpt lat="46.91018" lon="-2.15956">
        <ele>51</ele>
        <time>2025-05-06T09:41:58Z</time>
      </trkpt>
      <trkpt lat="46.91074" lon="-2.15944">
        <ele>50</ele>
        <time>2025-05-06T09:42:13Z</time>
      </trkpt>
      <trkpt lat="46.91093" lon="-2.15925">
        <ele>49</ele>
        <time>2025-05-06T09:42:18Z</time>
      </trkpt>
      <trkpt lat="46.91119" lon="-2.15899">
        <ele>49</ele>
        <time>2025-05-06T09:42:25Z</time>
      </trkpt>
      <trkpt lat="46.91131" lon="-2.15885">
        <ele>49</ele>
        <time>2025-05-06T09:42:29Z</time>
      </trkpt>
      <trkpt lat="46.91175" lon="-2.15853">
        <ele>49</ele>
        <time>2025-05-06T09:42:40Z</time>
      </trkpt>
      <trkpt lat="46.91191" lon="-2.15846">
        <ele>48</ele>
        <time>2025-05-06T09:42:44Z</time>
      </trkpt>
      <trkpt lat="46.91265" lon="-2.15824">
        <ele>49</ele>
        <time>2025-05-06T09:43:01Z</time>
      </trkpt>
      <trkpt lat="46.91307" lon="-2.15817">
        <ele>50</ele>
        <time>2025-05-06T09:43:11Z</time>
      </trkpt>
      <trkpt lat="46.91354" lon="-2.15816">
        <ele>50</ele>
        <time>2025-05-06T09:43:22Z</time>
      </trkpt>
      <trkpt lat="46.91371" lon="-2.15814">
        <ele>49</ele>
        <time>2025-05-06T09:43:27Z</time>
      </trkpt>
      <trkpt lat="46.91422" lon="-2.15815">
        <ele>50</ele>
        <time>2025-05-06T09:43:39Z</time>
      </trkpt>
      <trkpt lat="46.91451" lon="-2.15838">
        <ele>48</ele>
        <time>2025-05-06T09:43:47Z</time>
      </trkpt>
      <trkpt lat="46.91499" lon="-2.15863">
        <ele>47</ele>
        <time>2025-05-06T09:43:59Z</time>
      </trkpt>
      <trkpt lat="46.91515" lon="-2.15869">
        <ele>46</ele>
        <time>2025-05-06T09:44:03Z</time>
      </trkpt>
      <trkpt lat="46.91553" lon="-2.15882">
        <ele>46</ele>
        <time>2025-05-06T09:44:12Z</time>
      </trkpt>
      <trkpt lat="46.91581" lon="-2.15892">
        <ele>48</ele>
        <time>2025-05-06T09:44:19Z</time>
      </trkpt>
      <trkpt lat="46.91617" lon="-2.15905">
        <ele>48</ele>
        <time>2025-05-06T09:44:28Z</time>
      </trkpt>
      <trkpt lat="46.9164" lon="-2.15912">
        <ele>49</ele>
        <time>2025-05-06T09:44:34Z</time>
      </trkpt>
      <trkpt lat="46.9167" lon="-2.15923">
        <ele>49</ele>
        <time>2025-05-06T09:44:42Z</time>
      </trkpt>
      <trkpt lat="46.91695" lon="-2.1593">
        <ele>49</ele>
        <time>2025-05-06T09:44:49Z</time>
      </trkpt>
      <trkpt lat="46.91726" lon="-2.15943">
        <ele>49</ele>
        <time>2025-05-06T09:44:58Z</time>
      </trkpt>
      <trkpt lat="46.91744" lon="-2.15949">
        <ele>49</ele>
        <time>2025-05-06T09:45:03Z</time>
      </trkpt>
      <trkpt lat="46.91758" lon="-2.15955">
        <ele>50</ele>
        <time>2025-05-06T09:45:07Z</time>
      </trkpt>
      <trkpt lat="46.91774" lon="-2.15964">
        <ele>51</ele>
        <time>2025-05-06T09:45:12Z</time>
      </trkpt>
      <trkpt lat="46.918" lon="-2.15975">
        <ele>51</ele>
        <time>2025-05-06T09:45:19Z</time>
      </trkpt>
      <trkpt lat="46.91814" lon="-2.15984">
        <ele>51</ele>
        <time>2025-05-06T09:45:23Z</time>
      </trkpt>
      <trkpt lat="46.91864" lon="-2.16025">
        <ele>48</ele>
        <time>2025-05-06T09:45:38Z</time>
      </trkpt>
      <trkpt lat="46.91927" lon="-2.16064">
        <ele>49</ele>
        <time>2025-05-06T09:45:55Z</time>
      </trkpt>
      <trkpt lat="46.91942" lon="-2.1607">
        <ele>49</ele>
        <time>2025-05-06T09:45:59Z</time>
      </trkpt>
      <trkpt lat="46.91975" lon="-2.16082">
        <ele>48</ele>
        <time>2025-05-06T09:46:07Z</time>
      </trkpt>
      <trkpt lat="46.91995" lon="-2.16088">
        <ele>48</ele>
        <time>2025-05-06T09:46:12Z</time>
      </trkpt>
      <trkpt lat="46.92044" lon="-2.16107">
        <ele>50</ele>
        <time>2025-05-06T09:46:24Z</time>
      </trkpt>
      <trkpt lat="46.92102" lon="-2.16134">
        <ele>49</ele>
        <time>2025-05-06T09:46:40Z</time>
      </trkpt>
      <trkpt lat="46.92118" lon="-2.16142">
        <ele>49</ele>
        <time>2025-05-06T09:46:44Z</time>
      </trkpt>
      <trkpt lat="46.92137" lon="-2.16151">
        <ele>49</ele>
        <time>2025-05-06T09:46:49Z</time>
      </trkpt>
      <trkpt lat="46.92161" lon="-2.16163">
        <ele>48</ele>
        <time>2025-05-06T09:46:55Z</time>
      </trkpt>
      <trkpt lat="46.92181" lon="-2.16171">
        <ele>49</ele>
        <time>2025-05-06T09:47:00Z</time>
      </trkpt>
      <trkpt lat="46.92197" lon="-2.1618">
        <ele>49</ele>
        <time>2025-05-06T09:47:04Z</time>
      </trkpt>
      <trkpt lat="46.92223" lon="-2.16192">
        <ele>49</ele>
        <time>2025-05-06T09:47:11Z</time>
      </trkpt>
      <trkpt lat="46.9224" lon="-2.16199">
        <ele>48</ele>
        <time>2025-05-06T09:47:17Z</time>
      </trkpt>
      <trkpt lat="46.92267" lon="-2.16216">
        <ele>49</ele>
        <time>2025-05-06T09:47:26Z</time>
      </trkpt>
      <trkpt lat="46.92314" lon="-2.16245">
        <ele>50</ele>
        <time>2025-05-06T09:47:40Z</time>
      </trkpt>
      <trkpt lat="46.92336" lon="-2.16261">
        <ele>48</ele>
        <time>2025-05-06T09:47:49Z</time>
      </trkpt>
      <trkpt lat="46.92352" lon="-2.16272">
        <ele>47</ele>
        <time>2025-05-06T09:47:54Z</time>
      </trkpt>
      <trkpt lat="46.924" lon="-2.16301">
        <ele>51</ele>
        <time>2025-05-06T09:48:07Z</time>
      </trkpt>
      <trkpt lat="46.92414" lon="-2.1631">
        <ele>52</ele>
        <time>2025-05-06T09:48:11Z</time>
      </trkpt>
      <trkpt lat="46.92434" lon="-2.16319">
        <ele>51</ele>
        <time>2025-05-06T09:48:16Z</time>
      </trkpt>
      <trkpt lat="46.92461" lon="-2.16333">
        <ele>51</ele>
        <time>2025-05-06T09:48:23Z</time>
      </trkpt>
      <trkpt lat="46.9248" lon="-2.16343">
        <ele>50</ele>
        <time>2025-05-06T09:48:28Z</time>
      </trkpt>
      <trkpt lat="46.92495" lon="-2.16351">
        <ele>51</ele>
        <time>2025-05-06T09:48:32Z</time>
      </trkpt>
      <trkpt lat="46.92559" lon="-2.16384">
        <ele>52</ele>
        <time>2025-05-06T09:48:48Z</time>
      </trkpt>
      <trkpt lat="46.92589" lon="-2.16399">
        <ele>52</ele>
        <time>2025-05-06T09:48:56Z</time>
      </trkpt>
      <trkpt lat="46.9263" lon="-2.16421">
        <ele>53</ele>
        <time>2025-05-06T09:49:07Z</time>
      </trkpt>
      <trkpt lat="46.92643" lon="-2.16428">
        <ele>51</ele>
        <time>2025-05-06T09:49:11Z</time>
      </trkpt>
      <trkpt lat="46.92663" lon="-2.16438">
        <ele>51</ele>
        <time>2025-05-06T09:49:17Z</time>
      </trkpt>
      <trkpt lat="46.92702" lon="-2.16458">
        <ele>52</ele>
        <time>2025-05-06T09:49:28Z</time>
      </trkpt>
      <trkpt lat="46.92718" lon="-2.16466">
        <ele>53</ele>
        <time>2025-05-06T09:49:33Z</time>
      </trkpt>
      <trkpt lat="46.92744" lon="-2.1648">
        <ele>52</ele>
        <time>2025-05-06T09:49:41Z</time>
      </trkpt>
      <trkpt lat="46.9276" lon="-2.16486">
        <ele>52</ele>
        <time>2025-05-06T09:49:46Z</time>
      </trkpt>
      <trkpt lat="46.92784" lon="-2.16493">
        <ele>50</ele>
        <time>2025-05-06T09:49:54Z</time>
      </trkpt>
      <trkpt lat="46.92801" lon="-2.16498">
        <ele>50</ele>
        <time>2025-05-06T09:49:59Z</time>
      </trkpt>
      <trkpt lat="46.92816" lon="-2.16502">
        <ele>50</ele>
        <time>2025-05-06T09:50:03Z</time>
      </trkpt>
      <trkpt lat="46.92832" lon="-2.16506">
        <ele>49</ele>
        <time>2025-05-06T09:50:07Z</time>
      </trkpt>
      <trkpt lat="46.92872" lon="-2.16512">
        <ele>50</ele>
        <time>2025-05-06T09:50:18Z</time>
      </trkpt>
      <trkpt lat="46.92893" lon="-2.16516">
        <ele>50</ele>
        <time>2025-05-06T09:50:24Z</time>
      </trkpt>
      <trkpt lat="46.92909" lon="-2.16518">
        <ele>51</ele>
        <time>2025-05-06T09:50:29Z</time>
      </trkpt>
      <trkpt lat="46.92923" lon="-2.16521">
        <ele>51</ele>
        <time>2025-05-06T09:50:33Z</time>
      </trkpt>
      <trkpt lat="46.92937" lon="-2.16524">
        <ele>50</ele>
        <time>2025-05-06T09:50:37Z</time>
      </trkpt>
      <trkpt lat="46.92962" lon="-2.1653">
        <ele>50</ele>
        <time>2025-05-06T09:50:44Z</time>
      </trkpt>
      <trkpt lat="46.93004" lon="-2.16538">
        <ele>51</ele>
        <time>2025-05-06T09:50:55Z</time>
      </trkpt>
      <trkpt lat="46.93019" lon="-2.16541">
        <ele>50</ele>
        <time>2025-05-06T09:50:59Z</time>
      </trkpt>
      <trkpt lat="46.93035" lon="-2.16543">
        <ele>49</ele>
        <time>2025-05-06T09:51:03Z</time>
      </trkpt>
      <trkpt lat="46.93058" lon="-2.16549">
        <ele>50</ele>
        <time>2025-05-06T09:51:09Z</time>
      </trkpt>
      <trkpt lat="46.931" lon="-2.16572">
        <ele>51</ele>
        <time>2025-05-06T09:51:21Z</time>
      </trkpt>
      <trkpt lat="46.93124" lon="-2.16605">
        <ele>50</ele>
        <time>2025-05-06T09:51:30Z</time>
      </trkpt>
      <trkpt lat="46.93135" lon="-2.16619">
        <ele>49</ele>
        <time>2025-05-06T09:51:34Z</time>
      </trkpt>
      <trkpt lat="46.93164" lon="-2.16657">
        <ele>49</ele>
        <time>2025-05-06T09:51:44Z</time>
      </trkpt>
      <trkpt lat="46.93187" lon="-2.16693">
        <ele>48</ele>
        <time>2025-05-06T09:51:53Z</time>
      </trkpt>
      <trkpt lat="46.93199" lon="-2.16709">
        <ele>47</ele>
        <time>2025-05-06T09:51:57Z</time>
      </trkpt>
      <trkpt lat="46.9322" lon="-2.16736">
        <ele>46</ele>
        <time>2025-05-06T09:52:04Z</time>
      </trkpt>
      <trkpt lat="46.93237" lon="-2.16758">
        <ele>48</ele>
        <time>2025-05-06T09:52:10Z</time>
      </trkpt>
      <trkpt lat="46.93263" lon="-2.16793">
        <ele>48</ele>
        <time>2025-05-06T09:52:19Z</time>
      </trkpt>
      <trkpt lat="46.93274" lon="-2.1681">
        <ele>47</ele>
        <time>2025-05-06T09:52:23Z</time>
      </trkpt>
      <trkpt lat="46.93289" lon="-2.16828">
        <ele>47</ele>
        <time>2025-05-06T09:52:28Z</time>
      </trkpt>
      <trkpt lat="46.93312" lon="-2.16853">
        <ele>47</ele>
        <time>2025-05-06T09:52:35Z</time>
      </trkpt>
      <trkpt lat="46.93361" lon="-2.16884">
        <ele>50</ele>
        <time>2025-05-06T09:52:48Z</time>
      </trkpt>
      <trkpt lat="46.9339" lon="-2.16902">
        <ele>49</ele>
        <time>2025-05-06T09:52:56Z</time>
      </trkpt>
      <trkpt lat="46.93407" lon="-2.16917">
        <ele>49</ele>
        <time>2025-05-06T09:53:03Z</time>
      </trkpt>
      <trkpt lat="46.93444" lon="-2.16939">
        <ele>49</ele>
        <time>2025-05-06T09:53:16Z</time>
      </trkpt>
      <trkpt lat="46.93455" lon="-2.1695">
        <ele>49</ele>
        <time>2025-05-06T09:53:20Z</time>
      </trkpt>
      <trkpt lat="46.93491" lon="-2.16977">
        <ele>49</ele>
        <time>2025-05-06T09:53:31Z</time>
      </trkpt>
      <trkpt lat="46.93504" lon="-2.16987">
        <ele>50</ele>
        <time>2025-05-06T09:53:35Z</time>
      </trkpt>
      <trkpt lat="46.93522" lon="-2.17001">
        <ele>50</ele>
        <time>2025-05-06T09:53:40Z</time>
      </trkpt>
      <trkpt lat="46.93542" lon="-2.17017">
        <ele>50</ele>
        <time>2025-05-06T09:53:46Z</time>
      </trkpt>
      <trkpt lat="46.9358" lon="-2.17047">
        <ele>51</ele>
        <time>2025-05-06T09:53:57Z</time>
      </trkpt>
      <trkpt lat="46.93613" lon="-2.17073">
        <ele>53</ele>
        <time>2025-05-06T09:54:07Z</time>
      </trkpt>
      <trkpt lat="46.93647" lon="-2.17101">
        <ele>52</ele>
        <time>2025-05-06T09:54:18Z</time>
      </trkpt>
      <trkpt lat="46.93664" lon="-2.17114">
        <ele>51</ele>
        <time>2025-05-06T09:54:23Z</time>
      </trkpt>
      <trkpt lat="46.93707" lon="-2.17069">
        <ele>51</ele>
        <time>2025-05-06T09:54:43Z</time>
      </trkpt>
      <trkpt lat="46.93716" lon="-2.17023">
        <ele>51</ele>
        <time>2025-05-06T09:54:52Z</time>
      </trkpt>
      <trkpt lat="46.9372" lon="-2.17">
        <ele>50</ele>
        <time>2025-05-06T09:54:57Z</time>
      </trkpt>
      <trkpt lat="46.93725" lon="-2.16975">
        <ele>49</ele>
        <time>2025-05-06T09:55:03Z</time>
      </trkpt>
      <trkpt lat="46.93761" lon="-2.1703">
        <ele>50</ele>
        <time>2025-05-06T09:55:24Z</time>
      </trkpt>
      <trkpt lat="46.93768" lon="-2.17051">
        <ele>50</ele>
        <time>2025-05-06T09:55:29Z</time>
      </trkpt>
      <trkpt lat="46.93791" lon="-2.17116">
        <ele>50</ele>
        <time>2025-05-06T09:55:43Z</time>
      </trkpt>
      <trkpt lat="46.93809" lon="-2.1717">
        <ele>50</ele>
        <time>2025-05-06T09:55:54Z</time>
      </trkpt>
      <trkpt lat="46.93821" lon="-2.17205">
        <ele>49</ele>
        <time>2025-05-06T09:56:01Z</time>
      </trkpt>
      <trkpt lat="46.9384" lon="-2.17259">
        <ele>49</ele>
        <time>2025-05-06T09:56:12Z</time>
      </trkpt>
      <trkpt lat="46.93846" lon="-2.17278">
        <ele>50</ele>
        <time>2025-05-06T09:56:16Z</time>
      </trkpt>
      <trkpt lat="46.93863" lon="-2.17328">
        <ele>50</ele>
        <time>2025-05-06T09:56:26Z</time>
      </trkpt>
      <trkpt lat="46.93875" lon="-2.1736">
        <ele>49</ele>
        <time>2025-05-06T09:56:33Z</time>
      </trkpt>
      <trkpt lat="46.93883" lon="-2.17384">
        <ele>50</ele>
        <time>2025-05-06T09:56:38Z</time>
      </trkpt>
      <trkpt lat="46.93888" lon="-2.17402">
        <ele>50</ele>
        <time>2025-05-06T09:56:42Z</time>
      </trkpt>
      <trkpt lat="46.93916" lon="-2.17429">
        <ele>51</ele>
        <time>2025-05-06T09:56:52Z</time>
      </trkpt>
      <trkpt lat="46.93976" lon="-2.17444">
        <ele>50</ele>
        <time>2025-05-06T09:57:08Z</time>
      </trkpt>
      <trkpt lat="46.94018" lon="-2.17501">
        <ele>52</ele>
        <time>2025-05-06T09:57:24Z</time>
      </trkpt>
      <trkpt lat="46.94035" lon="-2.1754">
        <ele>51</ele>
        <time>2025-05-06T09:57:32Z</time>
      </trkpt>
      <trkpt lat="46.94054" lon="-2.17558">
        <ele>50</ele>
        <time>2025-05-06T09:57:38Z</time>
      </trkpt>
      <trkpt lat="46.94101" lon="-2.17586">
        <ele>51</ele>
        <time>2025-05-06T09:57:51Z</time>
      </trkpt>
      <trkpt lat="46.94118" lon="-2.17597">
        <ele>51</ele>
        <time>2025-05-06T09:57:56Z</time>
      </trkpt>
      <trkpt lat="46.94135" lon="-2.17608">
        <ele>51</ele>
        <time>2025-05-06T09:58:01Z</time>
      </trkpt>
      <trkpt lat="46.94164" lon="-2.17627">
        <ele>50</ele>
        <time>2025-05-06T09:58:11Z</time>
      </trkpt>
      <trkpt lat="46.94195" lon="-2.17642">
        <ele>51</ele>
        <time>2025-05-06T09:58:20Z</time>
      </trkpt>
      <trkpt lat="46.94213" lon="-2.17651">
        <ele>50</ele>
        <time>2025-05-06T09:58:25Z</time>
      </trkpt>
      <trkpt lat="46.94238" lon="-2.17663">
        <ele>51</ele>
        <time>2025-05-06T09:58:32Z</time>
      </trkpt>
      <trkpt lat="46.94255" lon="-2.17671">
        <ele>52</ele>
        <time>2025-05-06T09:58:37Z</time>
      </trkpt>
      <trkpt lat="46.94283" lon="-2.17685">
        <ele>52</ele>
        <time>2025-05-06T09:58:45Z</time>
      </trkpt>
      <trkpt lat="46.94297" lon="-2.17692">
        <ele>51</ele>
        <time>2025-05-06T09:58:50Z</time>
      </trkpt>
      <trkpt lat="46.94339" lon="-2.17712">
        <ele>52</ele>
        <time>2025-05-06T09:59:02Z</time>
      </trkpt>
      <trkpt lat="46.9436" lon="-2.17723">
        <ele>52</ele>
        <time>2025-05-06T09:59:08Z</time>
      </trkpt>
      <trkpt lat="46.94377" lon="-2.17734">
        <ele>52</ele>
        <time>2025-05-06T09:59:13Z</time>
      </trkpt>
      <trkpt lat="46.94395" lon="-2.17751">
        <ele>50</ele>
        <time>2025-05-06T09:59:19Z</time>
      </trkpt>
      <trkpt lat="46.94412" lon="-2.17763">
        <ele>51</ele>
        <time>2025-05-06T09:59:24Z</time>
      </trkpt>
      <trkpt lat="46.9445" lon="-2.17792">
        <ele>49</ele>
        <time>2025-05-06T09:59:35Z</time>
      </trkpt>
      <trkpt lat="46.94468" lon="-2.17808">
        <ele>49</ele>
        <time>2025-05-06T09:59:41Z</time>
      </trkpt>
      <trkpt lat="46.94494" lon="-2.17829">
        <ele>49</ele>
        <time>2025-05-06T09:59:49Z</time>
      </trkpt>
      <trkpt lat="46.94517" lon="-2.17847">
        <ele>51</ele>
        <time>2025-05-06T09:59:56Z</time>
      </trkpt>
      <trkpt lat="46.94543" lon="-2.17869">
        <ele>49</ele>
        <time>2025-05-06T10:00:04Z</time>
      </trkpt>
      <trkpt lat="46.94557" lon="-2.17879">
        <ele>50</ele>
        <time>2025-05-06T10:00:08Z</time>
      </trkpt>
      <trkpt lat="46.94606" lon="-2.17917">
        <ele>50</ele>
        <time>2025-05-06T10:00:23Z</time>
      </trkpt>
      <trkpt lat="46.94623" lon="-2.17929">
        <ele>50</ele>
        <time>2025-05-06T10:00:28Z</time>
      </trkpt>
      <trkpt lat="46.94657" lon="-2.17956">
        <ele>50</ele>
        <time>2025-05-06T10:00:40Z</time>
      </trkpt>
      <trkpt lat="46.94644" lon="-2.18014">
        <ele>52</ele>
        <time>2025-05-06T10:00:55Z</time>
      </trkpt>
      <trkpt lat="46.94615" lon="-2.18148">
        <ele>50</ele>
        <time>2025-05-06T10:01:25Z</time>
      </trkpt>
      <trkpt lat="46.94684" lon="-2.18317">
        <ele>49</ele>
        <time>2025-05-06T10:02:18Z</time>
      </trkpt>
      <trkpt lat="46.94726" lon="-2.1836">
        <ele>50</ele>
        <time>2025-05-06T10:02:34Z</time>
      </trkpt>
      <trkpt lat="46.94746" lon="-2.18376">
        <ele>52</ele>
        <time>2025-05-06T10:07:30Z</time>
      </trkpt>
      <trkpt lat="46.94794" lon="-2.18432">
        <ele>50</ele>
        <time>2025-05-06T10:07:53Z</time>
      </trkpt>
      <trkpt lat="46.94922" lon="-2.18515">
        <ele>53</ele>
        <time>2025-05-06T10:08:30Z</time>
      </trkpt>
      <trkpt lat="46.94934" lon="-2.18524">
        <ele>51</ele>
        <time>2025-05-06T10:08:34Z</time>
      </trkpt>
      <trkpt lat="46.94969" lon="-2.18546">
        <ele>51</ele>
        <time>2025-05-06T10:08:44Z</time>
      </trkpt>
      <trkpt lat="46.95018" lon="-2.18577">
        <ele>53</ele>
        <time>2025-05-06T10:08:57Z</time>
      </trkpt>
      <trkpt lat="46.95031" lon="-2.18586">
        <ele>53</ele>
        <time>2025-05-06T10:09:01Z</time>
      </trkpt>
      <trkpt lat="46.95067" lon="-2.18607">
        <ele>55</ele>
        <time>2025-05-06T10:09:12Z</time>
      </trkpt>
      <trkpt lat="46.95085" lon="-2.18619">
        <ele>55</ele>
        <time>2025-05-06T10:09:18Z</time>
      </trkpt>
      <trkpt lat="46.95106" lon="-2.18632">
        <ele>54</ele>
        <time>2025-05-06T10:09:25Z</time>
      </trkpt>
      <trkpt lat="46.9512" lon="-2.18642">
        <ele>52</ele>
        <time>2025-05-06T10:09:30Z</time>
      </trkpt>
      <trkpt lat="46.95146" lon="-2.18659">
        <ele>52</ele>
        <time>2025-05-06T10:09:38Z</time>
      </trkpt>
      <trkpt lat="46.952" lon="-2.18691">
        <ele>55</ele>
        <time>2025-05-06T10:09:54Z</time>
      </trkpt>
      <trkpt lat="46.95215" lon="-2.18709">
        <ele>54</ele>
        <time>2025-05-06T10:10:00Z</time>
      </trkpt>
      <trkpt lat="46.95222" lon="-2.18729">
        <ele>52</ele>
        <time>2025-05-06T10:10:05Z</time>
      </trkpt>
      <trkpt lat="46.95264" lon="-2.18764">
        <ele>50</ele>
        <time>2025-05-06T10:10:17Z</time>
      </trkpt>
      <trkpt lat="46.95282" lon="-2.18785">
        <ele>49</ele>
        <time>2025-05-06T10:10:23Z</time>
      </trkpt>
      <trkpt lat="46.95318" lon="-2.18825">
        <ele>50</ele>
        <time>2025-05-06T10:10:35Z</time>
      </trkpt>
      <trkpt lat="46.95329" lon="-2.18839">
        <ele>52</ele>
        <time>2025-05-06T10:10:39Z</time>
      </trkpt>
      <trkpt lat="46.95348" lon="-2.18859">
        <ele>51</ele>
        <time>2025-05-06T10:10:45Z</time>
      </trkpt>
      <trkpt lat="46.9537" lon="-2.18887">
        <ele>48</ele>
        <time>2025-05-06T10:10:53Z</time>
      </trkpt>
      <trkpt lat="46.95403" lon="-2.18916">
        <ele>48</ele>
        <time>2025-05-06T10:11:03Z</time>
      </trkpt>
      <trkpt lat="46.95456" lon="-2.18963">
        <ele>51</ele>
        <time>2025-05-06T10:11:19Z</time>
      </trkpt>
      <trkpt lat="46.95479" lon="-2.18984">
        <ele>53</ele>
        <time>2025-05-06T10:11:27Z</time>
      </trkpt>
      <trkpt lat="46.95491" lon="-2.18995">
        <ele>51</ele>
        <time>2025-05-06T10:11:31Z</time>
      </trkpt>
      <trkpt lat="46.95514" lon="-2.19017">
        <ele>51</ele>
        <time>2025-05-06T10:11:38Z</time>
      </trkpt>
      <trkpt lat="46.95538" lon="-2.19037">
        <ele>51</ele>
        <time>2025-05-06T10:11:44Z</time>
      </trkpt>
      <trkpt lat="46.95573" lon="-2.19083">
        <ele>50</ele>
        <time>2025-05-06T10:11:54Z</time>
      </trkpt>
      <trkpt lat="46.95597" lon="-2.19139">
        <ele>50</ele>
        <time>2025-05-06T10:12:04Z</time>
      </trkpt>
      <trkpt lat="46.95615" lon="-2.192">
        <ele>50</ele>
        <time>2025-05-06T10:12:13Z</time>
      </trkpt>
      <trkpt lat="46.95637" lon="-2.19271">
        <ele>52</ele>
        <time>2025-05-06T10:12:24Z</time>
      </trkpt>
      <trkpt lat="46.9566" lon="-2.1933">
        <ele>51</ele>
        <time>2025-05-06T10:12:34Z</time>
      </trkpt>
      <trkpt lat="46.9568" lon="-2.19382">
        <ele>51</ele>
        <time>2025-05-06T10:12:43Z</time>
      </trkpt>
      <trkpt lat="46.95689" lon="-2.19407">
        <ele>51</ele>
        <time>2025-05-06T10:12:47Z</time>
      </trkpt>
      <trkpt lat="46.95701" lon="-2.19437">
        <ele>52</ele>
        <time>2025-05-06T10:12:52Z</time>
      </trkpt>
      <trkpt lat="46.95725" lon="-2.19489">
        <ele>51</ele>
        <time>2025-05-06T10:13:01Z</time>
      </trkpt>
      <trkpt lat="46.95742" lon="-2.19529">
        <ele>52</ele>
        <time>2025-05-06T10:13:08Z</time>
      </trkpt>
      <trkpt lat="46.95754" lon="-2.19557">
        <ele>52</ele>
        <time>2025-05-06T10:13:13Z</time>
      </trkpt>
      <trkpt lat="46.95768" lon="-2.19588">
        <ele>52</ele>
        <time>2025-05-06T10:13:19Z</time>
      </trkpt>
      <trkpt lat="46.95778" lon="-2.19609">
        <ele>53</ele>
        <time>2025-05-06T10:13:23Z</time>
      </trkpt>
      <trkpt lat="46.95787" lon="-2.19629">
        <ele>54</ele>
        <time>2025-05-06T10:13:27Z</time>
      </trkpt>
      <trkpt lat="46.95797" lon="-2.19652">
        <ele>54</ele>
        <time>2025-05-06T10:13:32Z</time>
      </trkpt>
      <trkpt lat="46.95822" lon="-2.1971">
        <ele>54</ele>
        <time>2025-05-06T10:13:45Z</time>
      </trkpt>
      <trkpt lat="46.95836" lon="-2.19741">
        <ele>54</ele>
        <time>2025-05-06T10:13:52Z</time>
      </trkpt>
      <trkpt lat="46.95844" lon="-2.19759">
        <ele>53</ele>
        <time>2025-05-06T10:13:56Z</time>
      </trkpt>
      <trkpt lat="46.95856" lon="-2.1979">
        <ele>52</ele>
        <time>2025-05-06T10:14:02Z</time>
      </trkpt>
      <trkpt lat="46.95875" lon="-2.19837">
        <ele>52</ele>
        <time>2025-05-06T10:14:12Z</time>
      </trkpt>
      <trkpt lat="46.95902" lon="-2.19896">
        <ele>52</ele>
        <time>2025-05-06T10:14:24Z</time>
      </trkpt>
      <trkpt lat="46.95916" lon="-2.19934">
        <ele>53</ele>
        <time>2025-05-06T10:14:31Z</time>
      </trkpt>
      <trkpt lat="46.95926" lon="-2.19959">
        <ele>53</ele>
        <time>2025-05-06T10:14:37Z</time>
      </trkpt>
      <trkpt lat="46.95959" lon="-2.20027">
        <ele>53</ele>
        <time>2025-05-06T10:14:53Z</time>
      </trkpt>
      <trkpt lat="46.9597" lon="-2.20049">
        <ele>53</ele>
        <time>2025-05-06T10:14:57Z</time>
      </trkpt>
      <trkpt lat="46.95978" lon="-2.20066">
        <ele>53</ele>
        <time>2025-05-06T10:15:00Z</time>
      </trkpt>
      <trkpt lat="46.95995" lon="-2.20102">
        <ele>55</ele>
        <time>2025-05-06T10:15:07Z</time>
      </trkpt>
      <trkpt lat="46.96005" lon="-2.20125">
        <ele>53</ele>
        <time>2025-05-06T10:15:12Z</time>
      </trkpt>
      <trkpt lat="46.96047" lon="-2.20212">
        <ele>57</ele>
        <time>2025-05-06T10:15:32Z</time>
      </trkpt>
      <trkpt lat="46.96089" lon="-2.20302">
        <ele>55</ele>
        <time>2025-05-06T10:15:49Z</time>
      </trkpt>
      <trkpt lat="46.96101" lon="-2.20332">
        <ele>54</ele>
        <time>2025-05-06T10:15:55Z</time>
      </trkpt>
      <trkpt lat="46.96129" lon="-2.20403">
        <ele>53</ele>
        <time>2025-05-06T10:16:11Z</time>
      </trkpt>
      <trkpt lat="46.96145" lon="-2.20448">
        <ele>54</ele>
        <time>2025-05-06T10:16:22Z</time>
      </trkpt>
      <trkpt lat="46.96176" lon="-2.20519">
        <ele>59</ele>
        <time>2025-05-06T10:16:41Z</time>
      </trkpt>
      <trkpt lat="46.96187" lon="-2.20545">
        <ele>59</ele>
        <time>2025-05-06T10:16:48Z</time>
      </trkpt>
      <trkpt lat="46.96202" lon="-2.20579">
        <ele>56</ele>
        <time>2025-05-06T10:16:56Z</time>
      </trkpt>
      <trkpt lat="46.96212" lon="-2.20604">
        <ele>55</ele>
        <time>2025-05-06T10:17:02Z</time>
      </trkpt>
      <trkpt lat="46.96281" lon="-2.20751">
        <ele>53</ele>
        <time>2025-05-06T10:17:28Z</time>
      </trkpt>
      <trkpt lat="46.96294" lon="-2.20778">
        <ele>54</ele>
        <time>2025-05-06T10:17:33Z</time>
      </trkpt>
      <trkpt lat="46.96304" lon="-2.20799">
        <ele>54</ele>
        <time>2025-05-06T10:17:37Z</time>
      </trkpt>
      <trkpt lat="46.9633" lon="-2.2086">
        <ele>57</ele>
        <time>2025-05-06T10:17:49Z</time>
      </trkpt>
      <trkpt lat="46.96339" lon="-2.20879">
        <ele>55</ele>
        <time>2025-05-06T10:17:53Z</time>
      </trkpt>
      <trkpt lat="46.96351" lon="-2.20907">
        <ele>55</ele>
        <time>2025-05-06T10:17:58Z</time>
      </trkpt>
      <trkpt lat="46.96386" lon="-2.20982">
        <ele>55</ele>
        <time>2025-05-06T10:18:13Z</time>
      </trkpt>
      <trkpt lat="46.96396" lon="-2.21007">
        <ele>55</ele>
        <time>2025-05-06T10:18:18Z</time>
      </trkpt>
      <trkpt lat="46.96406" lon="-2.21026">
        <ele>54</ele>
        <time>2025-05-06T10:18:22Z</time>
      </trkpt>
      <trkpt lat="46.96425" lon="-2.2107">
        <ele>56</ele>
        <time>2025-05-06T10:18:30Z</time>
      </trkpt>
      <trkpt lat="46.9645" lon="-2.21125">
        <ele>54</ele>
        <time>2025-05-06T10:18:41Z</time>
      </trkpt>
      <trkpt lat="46.96473" lon="-2.2118">
        <ele>54</ele>
        <time>2025-05-06T10:18:52Z</time>
      </trkpt>
      <trkpt lat="46.96491" lon="-2.21221">
        <ele>55</ele>
        <time>2025-05-06T10:19:00Z</time>
      </trkpt>
      <trkpt lat="46.96507" lon="-2.21256">
        <ele>53</ele>
        <time>2025-05-06T10:19:07Z</time>
      </trkpt>
      <trkpt lat="46.96516" lon="-2.21279">
        <ele>53</ele>
        <time>2025-05-06T10:19:11Z</time>
      </trkpt>
      <trkpt lat="46.96527" lon="-2.21306">
        <ele>53</ele>
        <time>2025-05-06T10:19:16Z</time>
      </trkpt>
      <trkpt lat="46.96537" lon="-2.21326">
        <ele>53</ele>
        <time>2025-05-06T10:19:20Z</time>
      </trkpt>
      <trkpt lat="46.96545" lon="-2.21347">
        <ele>54</ele>
        <time>2025-05-06T10:19:24Z</time>
      </trkpt>
      <trkpt lat="46.96571" lon="-2.21407">
        <ele>54</ele>
        <time>2025-05-06T10:19:36Z</time>
      </trkpt>
      <trkpt lat="46.96597" lon="-2.21471">
        <ele>56</ele>
        <time>2025-05-06T10:19:49Z</time>
      </trkpt>
      <trkpt lat="46.96605" lon="-2.2149">
        <ele>56</ele>
        <time>2025-05-06T10:19:53Z</time>
      </trkpt>
      <trkpt lat="46.96627" lon="-2.21542">
        <ele>56</ele>
        <time>2025-05-06T10:20:03Z</time>
      </trkpt>
      <trkpt lat="46.96639" lon="-2.21573">
        <ele>55</ele>
        <time>2025-05-06T10:20:09Z</time>
      </trkpt>
      <trkpt lat="46.96646" lon="-2.21592">
        <ele>53</ele>
        <time>2025-05-06T10:20:13Z</time>
      </trkpt>
      <trkpt lat="46.96655" lon="-2.21636">
        <ele>52</ele>
        <time>2025-05-06T10:20:22Z</time>
      </trkpt>
      <trkpt lat="46.96661" lon="-2.21679">
        <ele>52</ele>
        <time>2025-05-06T10:20:31Z</time>
      </trkpt>
      <trkpt lat="46.96681" lon="-2.21701">
        <ele>54</ele>
        <time>2025-05-06T10:20:43Z</time>
      </trkpt>
      <trkpt lat="46.96699" lon="-2.21721">
        <ele>56</ele>
        <time>2025-05-06T10:21:42Z</time>
      </trkpt>
      <trkpt lat="46.96701" lon="-2.21751">
        <ele>54</ele>
        <time>2025-05-06T10:56:58Z</time>
      </trkpt>
      <trkpt lat="46.96705" lon="-2.21783">
        <ele>54</ele>
        <time>2025-05-06T10:57:08Z</time>
      </trkpt>
      <trkpt lat="46.96695" lon="-2.21767">
        <ele>54</ele>
        <time>2025-05-06T10:57:35Z</time>
      </trkpt>
      <trkpt lat="46.96688" lon="-2.21701">
        <ele>54</ele>
        <time>2025-05-06T10:58:32Z</time>
      </trkpt>
      <trkpt lat="46.96694" lon="-2.21682">
        <ele>52</ele>
        <time>2025-05-06T10:58:38Z</time>
      </trkpt>
      <trkpt lat="46.96713" lon="-2.21672">
        <ele>52</ele>
        <time>2025-05-06T10:58:44Z</time>
      </trkpt>
      <trkpt lat="46.96749" lon="-2.2171">
        <ele>51</ele>
        <time>2025-05-06T10:58:56Z</time>
      </trkpt>
      <trkpt lat="46.96807" lon="-2.21812">
        <ele>48</ele>
        <time>2025-05-06T10:59:14Z</time>
      </trkpt>
      <trkpt lat="46.96838" lon="-2.21873">
        <ele>49</ele>
        <time>2025-05-06T10:59:24Z</time>
      </trkpt>
      <trkpt lat="46.9686" lon="-2.21932">
        <ele>50</ele>
        <time>2025-05-06T10:59:33Z</time>
      </trkpt>
      <trkpt lat="46.96866" lon="-2.21951">
        <ele>50</ele>
        <time>2025-05-06T10:59:36Z</time>
      </trkpt>
      <trkpt lat="46.96892" lon="-2.22047">
        <ele>49</ele>
        <time>2025-05-06T10:59:50Z</time>
      </trkpt>
      <trkpt lat="46.96906" lon="-2.22109">
        <ele>49</ele>
        <time>2025-05-06T10:59:59Z</time>
      </trkpt>
      <trkpt lat="46.96909" lon="-2.2213">
        <ele>49</ele>
        <time>2025-05-06T11:00:02Z</time>
      </trkpt>
      <trkpt lat="46.96918" lon="-2.2217">
        <ele>50</ele>
        <time>2025-05-06T11:00:08Z</time>
      </trkpt>
      <trkpt lat="46.96924" lon="-2.22198">
        <ele>50</ele>
        <time>2025-05-06T11:00:12Z</time>
      </trkpt>
      <trkpt lat="46.96934" lon="-2.22248">
        <ele>50</ele>
        <time>2025-05-06T11:00:19Z</time>
      </trkpt>
      <trkpt lat="46.96945" lon="-2.22303">
        <ele>50</ele>
        <time>2025-05-06T11:00:27Z</time>
      </trkpt>
      <trkpt lat="46.9695" lon="-2.2233">
        <ele>49</ele>
        <time>2025-05-06T11:00:31Z</time>
      </trkpt>
      <trkpt lat="46.96957" lon="-2.22364">
        <ele>50</ele>
        <time>2025-05-06T11:00:36Z</time>
      </trkpt>
      <trkpt lat="46.9696" lon="-2.22385">
        <ele>50</ele>
        <time>2025-05-06T11:00:39Z</time>
      </trkpt>
      <trkpt lat="46.96969" lon="-2.22442">
        <ele>49</ele>
        <time>2025-05-06T11:00:47Z</time>
      </trkpt>
      <trkpt lat="46.96974" lon="-2.22483">
        <ele>49</ele>
        <time>2025-05-06T11:00:53Z</time>
      </trkpt>
      <trkpt lat="46.96978" lon="-2.22511">
        <ele>50</ele>
        <time>2025-05-06T11:00:58Z</time>
      </trkpt>
      <trkpt lat="46.96951" lon="-2.22517">
        <ele>52</ele>
        <time>2025-05-06T11:01:18Z</time>
      </trkpt>
      <trkpt lat="46.96913" lon="-2.22527">
        <ele>51</ele>
        <time>2025-05-06T11:01:27Z</time>
      </trkpt>
      <trkpt lat="46.96898" lon="-2.22529">
        <ele>50</ele>
        <time>2025-05-06T11:01:31Z</time>
      </trkpt>
      <trkpt lat="46.96874" lon="-2.22534">
        <ele>51</ele>
        <time>2025-05-06T11:01:39Z</time>
      </trkpt>
      <trkpt lat="46.96844" lon="-2.22534">
        <ele>52</ele>
        <time>2025-05-06T11:01:49Z</time>
      </trkpt>
      <trkpt lat="46.96822" lon="-2.22539">
        <ele>53</ele>
        <time>2025-05-06T11:01:56Z</time>
      </trkpt>
      <trkpt lat="46.96795" lon="-2.22591">
        <ele>53</ele>
        <time>2025-05-06T11:02:14Z</time>
      </trkpt>
      <trkpt lat="46.96803" lon="-2.22638">
        <ele>53</ele>
        <time>2025-05-06T11:02:22Z</time>
      </trkpt>
      <trkpt lat="46.96806" lon="-2.22674">
        <ele>53</ele>
        <time>2025-05-06T11:02:28Z</time>
      </trkpt>
      <trkpt lat="46.96809" lon="-2.22699">
        <ele>53</ele>
        <time>2025-05-06T11:02:32Z</time>
      </trkpt>
      <trkpt lat="46.96814" lon="-2.22735">
        <ele>54</ele>
        <time>2025-05-06T11:02:38Z</time>
      </trkpt>
      <trkpt lat="46.96819" lon="-2.22779">
        <ele>53</ele>
        <time>2025-05-06T11:02:45Z</time>
      </trkpt>
      <trkpt lat="46.96824" lon="-2.22823">
        <ele>54</ele>
        <time>2025-05-06T11:02:52Z</time>
      </trkpt>
      <trkpt lat="46.96831" lon="-2.22895">
        <ele>54</ele>
        <time>2025-05-06T11:03:04Z</time>
      </trkpt>
      <trkpt lat="46.96823" lon="-2.22963">
        <ele>54</ele>
        <time>2025-05-06T11:03:15Z</time>
      </trkpt>
      <trkpt lat="46.96817" lon="-2.23002">
        <ele>54</ele>
        <time>2025-05-06T11:03:21Z</time>
      </trkpt>
      <trkpt lat="46.96808" lon="-2.23059">
        <ele>55</ele>
        <time>2025-05-06T11:03:30Z</time>
      </trkpt>
      <trkpt lat="46.96803" lon="-2.23096">
        <ele>56</ele>
        <time>2025-05-06T11:03:36Z</time>
      </trkpt>
      <trkpt lat="46.968" lon="-2.23121">
        <ele>57</ele>
        <time>2025-05-06T11:03:40Z</time>
      </trkpt>
      <trkpt lat="46.96783" lon="-2.23165">
        <ele>56</ele>
        <time>2025-05-06T11:03:48Z</time>
      </trkpt>
      <trkpt lat="46.96743" lon="-2.23256">
        <ele>54</ele>
        <time>2025-05-06T11:04:04Z</time>
      </trkpt>
      <trkpt lat="46.96737" lon="-2.23335">
        <ele>52</ele>
        <time>2025-05-06T11:04:15Z</time>
      </trkpt>
      <trkpt lat="46.96736" lon="-2.23408">
        <ele>53</ele>
        <time>2025-05-06T11:04:27Z</time>
      </trkpt>
      <trkpt lat="46.96636" lon="-2.23465">
        <ele>51</ele>
        <time>2025-05-06T11:04:58Z</time>
      </trkpt>
      <trkpt lat="46.96613" lon="-2.23471">
        <ele>54</ele>
        <time>2025-05-06T11:05:04Z</time>
      </trkpt>
      <trkpt lat="46.96595" lon="-2.23483">
        <ele>56</ele>
        <time>2025-05-06T11:05:10Z</time>
      </trkpt>
      <trkpt lat="46.96564" lon="-2.23491">
        <ele>55</ele>
        <time>2025-05-06T11:05:21Z</time>
      </trkpt>
      <trkpt lat="46.96549" lon="-2.23497">
        <ele>58</ele>
        <time>2025-05-06T11:05:32Z</time>
      </trkpt>
      <trkpt lat="46.96555" lon="-2.23551">
        <ele>56</ele>
        <time>2025-05-06T11:25:32Z</time>
      </trkpt>
      <trkpt lat="46.96556" lon="-2.23576">
        <ele>56</ele>
        <time>2025-05-06T11:25:38Z</time>
      </trkpt>
      <trkpt lat="46.96558" lon="-2.2363">
        <ele>54</ele>
        <time>2025-05-06T11:25:50Z</time>
      </trkpt>
      <trkpt lat="46.96559" lon="-2.23679">
        <ele>54</ele>
        <time>2025-05-06T11:25:59Z</time>
      </trkpt>
      <trkpt lat="46.96558" lon="-2.23701">
        <ele>53</ele>
        <time>2025-05-06T11:26:03Z</time>
      </trkpt>
      <trkpt lat="46.96545" lon="-2.23762">
        <ele>54</ele>
        <time>2025-05-06T11:26:14Z</time>
      </trkpt>
      <trkpt lat="46.96539" lon="-2.23802">
        <ele>53</ele>
        <time>2025-05-06T11:26:21Z</time>
      </trkpt>
      <trkpt lat="46.96542" lon="-2.23843">
        <ele>54</ele>
        <time>2025-05-06T11:26:29Z</time>
      </trkpt>
      <trkpt lat="46.96545" lon="-2.23877">
        <ele>54</ele>
        <time>2025-05-06T11:26:37Z</time>
      </trkpt>
      <trkpt lat="46.96553" lon="-2.23916">
        <ele>54</ele>
        <time>2025-05-06T11:26:45Z</time>
      </trkpt>
      <trkpt lat="46.96557" lon="-2.23951">
        <ele>55</ele>
        <time>2025-05-06T11:26:52Z</time>
      </trkpt>
      <trkpt lat="46.96558" lon="-2.23981">
        <ele>56</ele>
        <time>2025-05-06T11:26:59Z</time>
      </trkpt>
      <trkpt lat="46.96558" lon="-2.24024">
        <ele>55</ele>
        <time>2025-05-06T11:27:11Z</time>
      </trkpt>
      <trkpt lat="46.96556" lon="-2.24051">
        <ele>56</ele>
        <time>2025-05-06T11:27:17Z</time>
      </trkpt>
      <trkpt lat="46.96556" lon="-2.2408">
        <ele>56</ele>
        <time>2025-05-06T11:27:23Z</time>
      </trkpt>
      <trkpt lat="46.96555" lon="-2.24123">
        <ele>54</ele>
        <time>2025-05-06T11:27:32Z</time>
      </trkpt>
      <trkpt lat="46.96553" lon="-2.24149">
        <ele>54</ele>
        <time>2025-05-06T11:27:37Z</time>
      </trkpt>
      <trkpt lat="46.96589" lon="-2.24218">
        <ele>50</ele>
        <time>2025-05-06T11:27:57Z</time>
      </trkpt>
      <trkpt lat="46.96602" lon="-2.2422">
        <ele>49</ele>
        <time>2025-05-06T11:28:00Z</time>
      </trkpt>
      <trkpt lat="46.96616" lon="-2.24221">
        <ele>49</ele>
        <time>2025-05-06T11:28:03Z</time>
      </trkpt>
      <trkpt lat="46.96638" lon="-2.24224">
        <ele>50</ele>
        <time>2025-05-06T11:28:08Z</time>
      </trkpt>
      <trkpt lat="46.96666" lon="-2.24228">
        <ele>50</ele>
        <time>2025-05-06T11:28:15Z</time>
      </trkpt>
      <trkpt lat="46.96691" lon="-2.24232">
        <ele>54</ele>
        <time>2025-05-06T11:28:22Z</time>
      </trkpt>
      <trkpt lat="46.96695" lon="-2.24263">
        <ele>53</ele>
        <time>2025-05-06T11:28:30Z</time>
      </trkpt>
      <trkpt lat="46.96688" lon="-2.243">
        <ele>52</ele>
        <time>2025-05-06T11:28:37Z</time>
      </trkpt>
      <trkpt lat="46.96677" lon="-2.24347">
        <ele>52</ele>
        <time>2025-05-06T11:28:46Z</time>
      </trkpt>
      <trkpt lat="46.96671" lon="-2.24369">
        <ele>52</ele>
        <time>2025-05-06T11:28:50Z</time>
      </trkpt>
      <trkpt lat="46.96662" lon="-2.244">
        <ele>53</ele>
        <time>2025-05-06T11:28:56Z</time>
      </trkpt>
      <trkpt lat="46.96651" lon="-2.24455">
        <ele>54</ele>
        <time>2025-05-06T11:29:06Z</time>
      </trkpt>
      <trkpt lat="46.96658" lon="-2.24504">
        <ele>53</ele>
        <time>2025-05-06T11:29:14Z</time>
      </trkpt>
      <trkpt lat="46.96678" lon="-2.24743">
        <ele>50</ele>
        <time>2025-05-06T11:29:52Z</time>
      </trkpt>
      <trkpt lat="46.96684" lon="-2.24796">
        <ele>51</ele>
        <time>2025-05-06T11:30:00Z</time>
      </trkpt>
      <trkpt lat="46.96688" lon="-2.24819">
        <ele>51</ele>
        <time>2025-05-06T11:30:04Z</time>
      </trkpt>
      <trkpt lat="46.96705" lon="-2.24885">
        <ele>51</ele>
        <time>2025-05-06T11:30:18Z</time>
      </trkpt>
      <trkpt lat="46.96691" lon="-2.2495">
        <ele>50</ele>
        <time>2025-05-06T11:30:30Z</time>
      </trkpt>
      <trkpt lat="46.96686" lon="-2.24974">
        <ele>53</ele>
        <time>2025-05-06T11:30:54Z</time>
      </trkpt>
      <trkpt lat="46.96681" lon="-2.25015">
        <ele>52</ele>
        <time>2025-05-06T11:31:04Z</time>
      </trkpt>
      <trkpt lat="46.96674" lon="-2.2515">
        <ele>50</ele>
        <time>2025-05-06T11:31:28Z</time>
      </trkpt>
      <trkpt lat="46.96674" lon="-2.25211">
        <ele>49</ele>
        <time>2025-05-06T11:31:37Z</time>
      </trkpt>
      <trkpt lat="46.96678" lon="-2.25282">
        <ele>49</ele>
        <time>2025-05-06T11:31:48Z</time>
      </trkpt>
      <trkpt lat="46.96679" lon="-2.25303">
        <ele>49</ele>
        <time>2025-05-06T11:31:51Z</time>
      </trkpt>
      <trkpt lat="46.96682" lon="-2.25337">
        <ele>49</ele>
        <time>2025-05-06T11:31:56Z</time>
      </trkpt>
      <trkpt lat="46.96684" lon="-2.25357">
        <ele>48</ele>
        <time>2025-05-06T11:31:59Z</time>
      </trkpt>
      <trkpt lat="46.96688" lon="-2.25397">
        <ele>49</ele>
        <time>2025-05-06T11:32:05Z</time>
      </trkpt>
      <trkpt lat="46.96693" lon="-2.25426">
        <ele>49</ele>
        <time>2025-05-06T11:32:10Z</time>
      </trkpt>
      <trkpt lat="46.96712" lon="-2.25519">
        <ele>51</ele>
        <time>2025-05-06T11:32:25Z</time>
      </trkpt>
      <trkpt lat="46.96728" lon="-2.25589">
        <ele>52</ele>
        <time>2025-05-06T11:32:36Z</time>
      </trkpt>
      <trkpt lat="46.96744" lon="-2.25642">
        <ele>51</ele>
        <time>2025-05-06T11:32:45Z</time>
      </trkpt>
      <trkpt lat="46.96751" lon="-2.25661">
        <ele>52</ele>
        <time>2025-05-06T11:32:49Z</time>
      </trkpt>
      <trkpt lat="46.96777" lon="-2.25728">
        <ele>51</ele>
        <time>2025-05-06T11:33:03Z</time>
      </trkpt>
      <trkpt lat="46.96785" lon="-2.25749">
        <ele>51</ele>
        <time>2025-05-06T11:33:07Z</time>
      </trkpt>
      <trkpt lat="46.96797" lon="-2.25776">
        <ele>52</ele>
        <time>2025-05-06T11:33:12Z</time>
      </trkpt>
      <trkpt lat="46.96807" lon="-2.25798">
        <ele>52</ele>
        <time>2025-05-06T11:33:16Z</time>
      </trkpt>
      <trkpt lat="46.96821" lon="-2.25822">
        <ele>52</ele>
        <time>2025-05-06T11:33:21Z</time>
      </trkpt>
      <trkpt lat="46.96854" lon="-2.25871">
        <ele>52</ele>
        <time>2025-05-06T11:33:32Z</time>
      </trkpt>
      <trkpt lat="46.96873" lon="-2.259">
        <ele>52</ele>
        <time>2025-05-06T11:33:38Z</time>
      </trkpt>
      <trkpt lat="46.96904" lon="-2.25948">
        <ele>54</ele>
        <time>2025-05-06T11:33:48Z</time>
      </trkpt>
      <trkpt lat="46.96914" lon="-2.25961">
        <ele>54</ele>
        <time>2025-05-06T11:33:51Z</time>
      </trkpt>
      <trkpt lat="46.9695" lon="-2.26007">
        <ele>53</ele>
        <time>2025-05-06T11:34:01Z</time>
      </trkpt>
      <trkpt lat="46.96965" lon="-2.26023">
        <ele>53</ele>
        <time>2025-05-06T11:34:05Z</time>
      </trkpt>
      <trkpt lat="46.96976" lon="-2.26035">
        <ele>54</ele>
        <time>2025-05-06T11:34:08Z</time>
      </trkpt>
      <trkpt lat="46.96993" lon="-2.26054">
        <ele>53</ele>
        <time>2025-05-06T11:34:13Z</time>
      </trkpt>
      <trkpt lat="46.97007" lon="-2.26071">
        <ele>53</ele>
        <time>2025-05-06T11:34:17Z</time>
      </trkpt>
      <trkpt lat="46.97022" lon="-2.26085">
        <ele>52</ele>
        <time>2025-05-06T11:34:21Z</time>
      </trkpt>
      <trkpt lat="46.97041" lon="-2.261">
        <ele>52</ele>
        <time>2025-05-06T11:34:26Z</time>
      </trkpt>
      <trkpt lat="46.97065" lon="-2.2612">
        <ele>51</ele>
        <time>2025-05-06T11:34:33Z</time>
      </trkpt>
      <trkpt lat="46.97094" lon="-2.26144">
        <ele>52</ele>
        <time>2025-05-06T11:34:41Z</time>
      </trkpt>
      <trkpt lat="46.97108" lon="-2.2615">
        <ele>53</ele>
        <time>2025-05-06T11:34:45Z</time>
      </trkpt>
      <trkpt lat="46.97124" lon="-2.26161">
        <ele>51</ele>
        <time>2025-05-06T11:34:50Z</time>
      </trkpt>
      <trkpt lat="46.9714" lon="-2.26171">
        <ele>51</ele>
        <time>2025-05-06T11:34:55Z</time>
      </trkpt>
      <trkpt lat="46.97167" lon="-2.26188">
        <ele>50</ele>
        <time>2025-05-06T11:35:03Z</time>
      </trkpt>
      <trkpt lat="46.9719" lon="-2.262">
        <ele>50</ele>
        <time>2025-05-06T11:35:10Z</time>
      </trkpt>
      <trkpt lat="46.97211" lon="-2.26204">
        <ele>51</ele>
        <time>2025-05-06T11:35:16Z</time>
      </trkpt>
      <trkpt lat="46.97237" lon="-2.26215">
        <ele>51</ele>
        <time>2025-05-06T11:35:23Z</time>
      </trkpt>
      <trkpt lat="46.9725" lon="-2.2622">
        <ele>50</ele>
        <time>2025-05-06T11:35:27Z</time>
      </trkpt>
      <trkpt lat="46.97279" lon="-2.26229">
        <ele>50</ele>
        <time>2025-05-06T11:35:35Z</time>
      </trkpt>
      <trkpt lat="46.97306" lon="-2.26235">
        <ele>50</ele>
        <time>2025-05-06T11:35:42Z</time>
      </trkpt>
      <trkpt lat="46.97357" lon="-2.26242">
        <ele>50</ele>
        <time>2025-05-06T11:35:56Z</time>
      </trkpt>
      <trkpt lat="46.97391" lon="-2.26248">
        <ele>50</ele>
        <time>2025-05-06T11:36:05Z</time>
      </trkpt>
      <trkpt lat="46.97427" lon="-2.26247">
        <ele>51</ele>
        <time>2025-05-06T11:36:16Z</time>
      </trkpt>
      <trkpt lat="46.97445" lon="-2.26249">
        <ele>51</ele>
        <time>2025-05-06T11:36:21Z</time>
      </trkpt>
      <trkpt lat="46.97489" lon="-2.26252">
        <ele>52</ele>
        <time>2025-05-06T11:36:33Z</time>
      </trkpt>
      <trkpt lat="46.97504" lon="-2.26254">
        <ele>51</ele>
        <time>2025-05-06T11:36:37Z</time>
      </trkpt>
      <trkpt lat="46.97529" lon="-2.26255">
        <ele>52</ele>
        <time>2025-05-06T11:36:44Z</time>
      </trkpt>
      <trkpt lat="46.97577" lon="-2.26259">
        <ele>50</ele>
        <time>2025-05-06T11:36:57Z</time>
      </trkpt>
      <trkpt lat="46.97606" lon="-2.2626">
        <ele>49</ele>
        <time>2025-05-06T11:37:05Z</time>
      </trkpt>
      <trkpt lat="46.9762" lon="-2.26262">
        <ele>50</ele>
        <time>2025-05-06T11:37:09Z</time>
      </trkpt>
      <trkpt lat="46.97635" lon="-2.26263">
        <ele>49</ele>
        <time>2025-05-06T11:37:13Z</time>
      </trkpt>
      <trkpt lat="46.97664" lon="-2.26265">
        <ele>49</ele>
        <time>2025-05-06T11:37:21Z</time>
      </trkpt>
      <trkpt lat="46.97678" lon="-2.26266">
        <ele>49</ele>
        <time>2025-05-06T11:37:25Z</time>
      </trkpt>
      <trkpt lat="46.97713" lon="-2.26269">
        <ele>51</ele>
        <time>2025-05-06T11:37:35Z</time>
      </trkpt>
      <trkpt lat="46.97741" lon="-2.26271">
        <ele>50</ele>
        <time>2025-05-06T11:37:43Z</time>
      </trkpt>
      <trkpt lat="46.97765" lon="-2.26272">
        <ele>51</ele>
        <time>2025-05-06T11:37:50Z</time>
      </trkpt>
      <trkpt lat="46.97792" lon="-2.26274">
        <ele>51</ele>
        <time>2025-05-06T11:37:58Z</time>
      </trkpt>
      <trkpt lat="46.97843" lon="-2.26278">
        <ele>51</ele>
        <time>2025-05-06T11:38:12Z</time>
      </trkpt>
      <trkpt lat="46.97857" lon="-2.26279">
        <ele>50</ele>
        <time>2025-05-06T11:38:16Z</time>
      </trkpt>
      <trkpt lat="46.97884" lon="-2.26281">
        <ele>51</ele>
        <time>2025-05-06T11:38:23Z</time>
      </trkpt>
      <trkpt lat="46.97899" lon="-2.26282">
        <ele>51</ele>
        <time>2025-05-06T11:38:27Z</time>
      </trkpt>
      <trkpt lat="46.97914" lon="-2.26283">
        <ele>51</ele>
        <time>2025-05-06T11:38:31Z</time>
      </trkpt>
      <trkpt lat="46.97929" lon="-2.26284">
        <ele>51</ele>
        <time>2025-05-06T11:38:35Z</time>
      </trkpt>
      <trkpt lat="46.97944" lon="-2.26286">
        <ele>52</ele>
        <time>2025-05-06T11:38:39Z</time>
      </trkpt>
      <trkpt lat="46.97965" lon="-2.26286">
        <ele>51</ele>
        <time>2025-05-06T11:38:45Z</time>
      </trkpt>
      <trkpt lat="46.97983" lon="-2.26288">
        <ele>51</ele>
        <time>2025-05-06T11:38:50Z</time>
      </trkpt>
      <trkpt lat="46.98002" lon="-2.26289">
        <ele>51</ele>
        <time>2025-05-06T11:38:55Z</time>
      </trkpt>
      <trkpt lat="46.98024" lon="-2.26291">
        <ele>51</ele>
        <time>2025-05-06T11:39:01Z</time>
      </trkpt>
      <trkpt lat="46.98041" lon="-2.26292">
        <ele>50</ele>
        <time>2025-05-06T11:39:06Z</time>
      </trkpt>
      <trkpt lat="46.98064" lon="-2.2631">
        <ele>51</ele>
        <time>2025-05-06T11:39:13Z</time>
      </trkpt>
      <trkpt lat="46.98076" lon="-2.26322">
        <ele>50</ele>
        <time>2025-05-06T11:39:17Z</time>
      </trkpt>
      <trkpt lat="46.98125" lon="-2.26343">
        <ele>50</ele>
        <time>2025-05-06T11:39:31Z</time>
      </trkpt>
      <trkpt lat="46.9814" lon="-2.26352">
        <ele>50</ele>
        <time>2025-05-06T11:39:37Z</time>
      </trkpt>
      <trkpt lat="46.98153" lon="-2.26362">
        <ele>49</ele>
        <time>2025-05-06T11:39:43Z</time>
      </trkpt>
      <trkpt lat="46.98178" lon="-2.26338">
        <ele>50</ele>
        <time>2025-05-06T11:40:01Z</time>
      </trkpt>
      <trkpt lat="46.98187" lon="-2.26298">
        <ele>52</ele>
        <time>2025-05-06T11:40:11Z</time>
      </trkpt>
      <trkpt lat="46.98191" lon="-2.26274">
        <ele>52</ele>
        <time>2025-05-06T11:40:16Z</time>
      </trkpt>
      <trkpt lat="46.98196" lon="-2.26229">
        <ele>53</ele>
        <time>2025-05-06T11:40:25Z</time>
      </trkpt>
      <trkpt lat="46.98199" lon="-2.26208">
        <ele>54</ele>
        <time>2025-05-06T11:40:29Z</time>
      </trkpt>
      <trkpt lat="46.982" lon="-2.26166">
        <ele>52</ele>
        <time>2025-05-06T11:40:38Z</time>
      </trkpt>
      <trkpt lat="46.98204" lon="-2.26138">
        <ele>52</ele>
        <time>2025-05-06T11:40:44Z</time>
      </trkpt>
      <trkpt lat="46.98226" lon="-2.25974">
        <ele>53</ele>
        <time>2025-05-06T11:41:19Z</time>
      </trkpt>
      <trkpt lat="46.98226" lon="-2.25915">
        <ele>51</ele>
        <time>2025-05-06T11:41:32Z</time>
      </trkpt>
      <trkpt lat="46.98222" lon="-2.25888">
        <ele>51</ele>
        <time>2025-05-06T11:41:37Z</time>
      </trkpt>
      <trkpt lat="46.98219" lon="-2.25853">
        <ele>52</ele>
        <time>2025-05-06T11:41:44Z</time>
      </trkpt>
      <trkpt lat="46.98216" lon="-2.25824">
        <ele>50</ele>
        <time>2025-05-06T11:41:50Z</time>
      </trkpt>
      <trkpt lat="46.98217" lon="-2.25801">
        <ele>51</ele>
        <time>2025-05-06T11:41:55Z</time>
      </trkpt>
      <trkpt lat="46.98255" lon="-2.25784">
        <ele>50</ele>
        <time>2025-05-06T11:42:07Z</time>
      </trkpt>
      <trkpt lat="46.98271" lon="-2.25783">
        <ele>51</ele>
        <time>2025-05-06T11:42:12Z</time>
      </trkpt>
      <trkpt lat="46.98298" lon="-2.25779">
        <ele>50</ele>
        <time>2025-05-06T11:42:20Z</time>
      </trkpt>
      <trkpt lat="46.98313" lon="-2.25774">
        <ele>50</ele>
        <time>2025-05-06T11:42:25Z</time>
      </trkpt>
      <trkpt lat="46.98341" lon="-2.25767">
        <ele>51</ele>
        <time>2025-05-06T11:42:34Z</time>
      </trkpt>
      <trkpt lat="46.98371" lon="-2.25768">
        <ele>49</ele>
        <time>2025-05-06T11:42:43Z</time>
      </trkpt>
      <trkpt lat="46.98397" lon="-2.25803">
        <ele>50</ele>
        <time>2025-05-06T11:42:54Z</time>
      </trkpt>
      <trkpt lat="46.98403" lon="-2.25821">
        <ele>50</ele>
        <time>2025-05-06T11:43:00Z</time>
      </trkpt>
      <trkpt lat="46.98435" lon="-2.25813">
        <ele>50</ele>
        <time>2025-05-06T11:43:12Z</time>
      </trkpt>
      <trkpt lat="46.9845" lon="-2.25802">
        <ele>51</ele>
        <time>2025-05-06T11:43:17Z</time>
      </trkpt>
      <trkpt lat="46.98466" lon="-2.25789">
        <ele>52</ele>
        <time>2025-05-06T11:43:23Z</time>
      </trkpt>
      <trkpt lat="46.9848" lon="-2.25778">
        <ele>51</ele>
        <time>2025-05-06T11:43:28Z</time>
      </trkpt>
      <trkpt lat="46.98499" lon="-2.25765">
        <ele>51</ele>
        <time>2025-05-06T11:43:34Z</time>
      </trkpt>
      <trkpt lat="46.98526" lon="-2.25741">
        <ele>51</ele>
        <time>2025-05-06T11:43:43Z</time>
      </trkpt>
      <trkpt lat="46.98561" lon="-2.25697">
        <ele>52</ele>
        <time>2025-05-06T11:43:57Z</time>
      </trkpt>
      <trkpt lat="46.9857" lon="-2.25676">
        <ele>53</ele>
        <time>2025-05-06T11:44:02Z</time>
      </trkpt>
      <trkpt lat="46.98578" lon="-2.25656">
        <ele>52</ele>
        <time>2025-05-06T11:44:07Z</time>
      </trkpt>
      <trkpt lat="46.98595" lon="-2.2563">
        <ele>51</ele>
        <time>2025-05-06T11:44:14Z</time>
      </trkpt>
      <trkpt lat="46.98635" lon="-2.25609">
        <ele>50</ele>
        <time>2025-05-06T11:44:27Z</time>
      </trkpt>
      <trkpt lat="46.98655" lon="-2.25607">
        <ele>49</ele>
        <time>2025-05-06T11:44:34Z</time>
      </trkpt>
      <trkpt lat="46.98681" lon="-2.25606">
        <ele>48</ele>
        <time>2025-05-06T11:44:42Z</time>
      </trkpt>
      <trkpt lat="46.98704" lon="-2.25593">
        <ele>48</ele>
        <time>2025-05-06T11:44:49Z</time>
      </trkpt>
      <trkpt lat="46.98734" lon="-2.25587">
        <ele>47</ele>
        <time>2025-05-06T11:44:58Z</time>
      </trkpt>
      <trkpt lat="46.9875" lon="-2.25581">
        <ele>47</ele>
        <time>2025-05-06T11:45:03Z</time>
      </trkpt>
      <trkpt lat="46.98764" lon="-2.25575">
        <ele>48</ele>
        <time>2025-05-06T11:45:07Z</time>
      </trkpt>
      <trkpt lat="46.9879" lon="-2.25558">
        <ele>50</ele>
        <time>2025-05-06T11:45:15Z</time>
      </trkpt>
      <trkpt lat="46.98812" lon="-2.25541">
        <ele>50</ele>
        <time>2025-05-06T11:45:22Z</time>
      </trkpt>
      <trkpt lat="46.98831" lon="-2.25525">
        <ele>52</ele>
        <time>2025-05-06T11:45:28Z</time>
      </trkpt>
      <trkpt lat="46.98846" lon="-2.25514">
        <ele>51</ele>
        <time>2025-05-06T11:45:33Z</time>
      </trkpt>
      <trkpt lat="46.98885" lon="-2.25474">
        <ele>53</ele>
        <time>2025-05-06T11:45:47Z</time>
      </trkpt>
      <trkpt lat="46.98896" lon="-2.25451">
        <ele>51</ele>
        <time>2025-05-06T11:45:53Z</time>
      </trkpt>
      <trkpt lat="46.98908" lon="-2.2543">
        <ele>51</ele>
        <time>2025-05-06T11:45:58Z</time>
      </trkpt>
      <trkpt lat="46.98935" lon="-2.25391">
        <ele>51</ele>
        <time>2025-05-06T11:46:10Z</time>
      </trkpt>
      <trkpt lat="46.98951" lon="-2.25365">
        <ele>51</ele>
        <time>2025-05-06T11:46:18Z</time>
      </trkpt>
      <trkpt lat="46.98978" lon="-2.25321">
        <ele>50</ele>
        <time>2025-05-06T11:46:32Z</time>
      </trkpt>
      <trkpt lat="46.99009" lon="-2.25253">
        <ele>50</ele>
        <time>2025-05-06T11:46:50Z</time>
      </trkpt>
      <trkpt lat="46.99005" lon="-2.25225">
        <ele>50</ele>
        <time>2025-05-06T11:46:56Z</time>
      </trkpt>
      <trkpt lat="46.98997" lon="-2.25204">
        <ele>51</ele>
        <time>2025-05-06T11:49:31Z</time>
      </trkpt>
      <trkpt lat="46.99002" lon="-2.25164">
        <ele>49</ele>
        <time>2025-05-06T11:49:40Z</time>
      </trkpt>
      <trkpt lat="46.99015" lon="-2.25147">
        <ele>49</ele>
        <time>2025-05-06T11:49:45Z</time>
      </trkpt>
      <trkpt lat="46.99027" lon="-2.25134">
        <ele>49</ele>
        <time>2025-05-06T11:49:52Z</time>
      </trkpt>
      <trkpt lat="46.9904" lon="-2.25123">
        <ele>48</ele>
        <time>2025-05-06T11:50:01Z</time>
      </trkpt>
      <trkpt lat="46.9903" lon="-2.25068">
        <ele>50</ele>
        <time>2025-05-06T11:50:20Z</time>
      </trkpt>
      <trkpt lat="46.99014" lon="-2.25035">
        <ele>49</ele>
        <time>2025-05-06T11:50:28Z</time>
      </trkpt>
      <trkpt lat="46.99002" lon="-2.25012">
        <ele>49</ele>
        <time>2025-05-06T11:50:34Z</time>
      </trkpt>
      <trkpt lat="46.98967" lon="-2.2494">
        <ele>50</ele>
        <time>2025-05-06T11:50:49Z</time>
      </trkpt>
      <trkpt lat="46.98942" lon="-2.24894">
        <ele>50</ele>
        <time>2025-05-06T11:50:59Z</time>
      </trkpt>
      <trkpt lat="46.98924" lon="-2.2488">
        <ele>50</ele>
        <time>2025-05-06T11:51:05Z</time>
      </trkpt>
      <trkpt lat="46.98926" lon="-2.24852">
        <ele>52</ele>
        <time>2025-05-06T11:51:15Z</time>
      </trkpt>
      <trkpt lat="46.98941" lon="-2.24819">
        <ele>52</ele>
        <time>2025-05-06T11:51:25Z</time>
      </trkpt>
      <trkpt lat="46.98975" lon="-2.24781">
        <ele>51</ele>
        <time>2025-05-06T11:51:37Z</time>
      </trkpt>
      <trkpt lat="46.98996" lon="-2.24759">
        <ele>51</ele>
        <time>2025-05-06T11:51:44Z</time>
      </trkpt>
      <trkpt lat="46.99008" lon="-2.24748">
        <ele>51</ele>
        <time>2025-05-06T11:51:48Z</time>
      </trkpt>
      <trkpt lat="46.99022" lon="-2.24731">
        <ele>52</ele>
        <time>2025-05-06T11:51:53Z</time>
      </trkpt>
      <trkpt lat="46.99045" lon="-2.24707">
        <ele>52</ele>
        <time>2025-05-06T11:52:01Z</time>
      </trkpt>
      <trkpt lat="46.99061" lon="-2.24693">
        <ele>52</ele>
        <time>2025-05-06T11:52:06Z</time>
      </trkpt>
      <trkpt lat="46.99073" lon="-2.24685">
        <ele>51</ele>
        <time>2025-05-06T11:52:10Z</time>
      </trkpt>
      <trkpt lat="46.99091" lon="-2.24676">
        <ele>50</ele>
        <time>2025-05-06T11:52:15Z</time>
      </trkpt>
      <trkpt lat="46.99105" lon="-2.24671">
        <ele>50</ele>
        <time>2025-05-06T11:52:19Z</time>
      </trkpt>
      <trkpt lat="46.99126" lon="-2.24665">
        <ele>50</ele>
        <time>2025-05-06T11:52:25Z</time>
      </trkpt>
      <trkpt lat="46.99141" lon="-2.24665">
        <ele>49</ele>
        <time>2025-05-06T11:52:29Z</time>
      </trkpt>
      <trkpt lat="46.99163" lon="-2.24665">
        <ele>50</ele>
        <time>2025-05-06T11:52:35Z</time>
      </trkpt>
      <trkpt lat="46.99184" lon="-2.24668">
        <ele>49</ele>
        <time>2025-05-06T11:52:41Z</time>
      </trkpt>
      <trkpt lat="46.99217" lon="-2.24673">
        <ele>49</ele>
        <time>2025-05-06T11:52:50Z</time>
      </trkpt>
      <trkpt lat="46.99262" lon="-2.24683">
        <ele>51</ele>
        <time>2025-05-06T11:53:03Z</time>
      </trkpt>
      <trkpt lat="46.99285" lon="-2.24688">
        <ele>49</ele>
        <time>2025-05-06T11:53:10Z</time>
      </trkpt>
      <trkpt lat="46.99303" lon="-2.24691">
        <ele>50</ele>
        <time>2025-05-06T11:53:15Z</time>
      </trkpt>
      <trkpt lat="46.99317" lon="-2.24693">
        <ele>50</ele>
        <time>2025-05-06T11:53:20Z</time>
      </trkpt>
      <trkpt lat="46.99346" lon="-2.247">
        <ele>51</ele>
        <time>2025-05-06T11:53:30Z</time>
      </trkpt>
      <trkpt lat="46.9936" lon="-2.24702">
        <ele>51</ele>
        <time>2025-05-06T11:53:35Z</time>
      </trkpt>
      <trkpt lat="46.99385" lon="-2.24706">
        <ele>51</ele>
        <time>2025-05-06T11:53:45Z</time>
      </trkpt>
      <trkpt lat="46.99431" lon="-2.24717">
        <ele>51</ele>
        <time>2025-05-06T11:53:57Z</time>
      </trkpt>
      <trkpt lat="46.99501" lon="-2.24724">
        <ele>48</ele>
        <time>2025-05-06T11:54:13Z</time>
      </trkpt>
      <trkpt lat="46.99518" lon="-2.24731">
        <ele>48</ele>
        <time>2025-05-06T11:54:17Z</time>
      </trkpt>
      <trkpt lat="46.99539" lon="-2.24738">
        <ele>50</ele>
        <time>2025-05-06T11:54:22Z</time>
      </trkpt>
      <trkpt lat="46.99554" lon="-2.24742">
        <ele>50</ele>
        <time>2025-05-06T11:54:26Z</time>
      </trkpt>
      <trkpt lat="46.99584" lon="-2.24749">
        <ele>51</ele>
        <time>2025-05-06T11:54:34Z</time>
      </trkpt>
      <trkpt lat="46.99598" lon="-2.24751">
        <ele>50</ele>
        <time>2025-05-06T11:54:38Z</time>
      </trkpt>
      <trkpt lat="46.99612" lon="-2.24754">
        <ele>50</ele>
        <time>2025-05-06T11:54:42Z</time>
      </trkpt>
      <trkpt lat="46.99641" lon="-2.24761">
        <ele>49</ele>
        <time>2025-05-06T11:54:50Z</time>
      </trkpt>
      <trkpt lat="46.99662" lon="-2.24766">
        <ele>52</ele>
        <time>2025-05-06T11:54:56Z</time>
      </trkpt>
      <trkpt lat="46.99683" lon="-2.24769">
        <ele>51</ele>
        <time>2025-05-06T11:55:02Z</time>
      </trkpt>
      <trkpt lat="46.99698" lon="-2.24772">
        <ele>51</ele>
        <time>2025-05-06T11:55:06Z</time>
      </trkpt>
      <trkpt lat="46.99738" lon="-2.2478">
        <ele>51</ele>
        <time>2025-05-06T11:55:17Z</time>
      </trkpt>
      <trkpt lat="46.99764" lon="-2.24777">
        <ele>51</ele>
        <time>2025-05-06T11:55:26Z</time>
      </trkpt>
      <trkpt lat="46.99782" lon="-2.24762">
        <ele>50</ele>
        <time>2025-05-06T11:55:35Z</time>
      </trkpt>
      <trkpt lat="46.99795" lon="-2.24769">
        <ele>49</ele>
        <time>2025-05-06T11:55:44Z</time>
      </trkpt>
      <trkpt lat="46.99813" lon="-2.24792">
        <ele>51</ele>
        <time>2025-05-06T11:55:56Z</time>
      </trkpt>
      <trkpt lat="46.99848" lon="-2.24803">
        <ele>51</ele>
        <time>2025-05-06T11:56:09Z</time>
      </trkpt>
      <trkpt lat="46.99866" lon="-2.24806">
        <ele>50</ele>
        <time>2025-05-06T11:56:15Z</time>
      </trkpt>
      <trkpt lat="46.99895" lon="-2.24808">
        <ele>49</ele>
        <time>2025-05-06T11:56:27Z</time>
      </trkpt>
      <trkpt lat="46.99918" lon="-2.24805">
        <ele>50</ele>
        <time>2025-05-06T11:56:38Z</time>
      </trkpt>
      <trkpt lat="46.99946" lon="-2.24794">
        <ele>53</ele>
        <time>2025-05-06T11:56:52Z</time>
      </trkpt>
      <trkpt lat="46.99983" lon="-2.24778">
        <ele>53</ele>
        <time>2025-05-06T11:57:16Z</time>
      </trkpt>
      <trkpt lat="47.00003" lon="-2.24772">
        <ele>52</ele>
        <time>2025-05-06T11:57:23Z</time>
      </trkpt>
      <trkpt lat="47.00019" lon="-2.24764">
        <ele>51</ele>
        <time>2025-05-06T11:57:28Z</time>
      </trkpt>
      <trkpt lat="47.00042" lon="-2.24768">
        <ele>50</ele>
        <time>2025-05-06T11:57:36Z</time>
      </trkpt>
      <trkpt lat="47.00053" lon="-2.24823">
        <ele>51</ele>
        <time>2025-05-06T11:57:58Z</time>
      </trkpt>
      <trkpt lat="47.00044" lon="-2.2479">
        <ele>52</ele>
        <time>2025-05-06T12:25:54Z</time>
      </trkpt>
      <trkpt lat="47.00005" lon="-2.24785">
        <ele>52</ele>
        <time>2025-05-06T12:26:21Z</time>
      </trkpt>
      <trkpt lat="46.99985" lon="-2.24757">
        <ele>53</ele>
        <time>2025-05-06T12:27:05Z</time>
      </trkpt>
      <trkpt lat="46.99971" lon="-2.24738">
        <ele>51</ele>
        <time>2025-05-06T12:27:33Z</time>
      </trkpt>
      <trkpt lat="46.99963" lon="-2.24674">
        <ele>51</ele>
        <time>2025-05-06T12:27:47Z</time>
      </trkpt>
      <trkpt lat="46.99958" lon="-2.24646">
        <ele>51</ele>
        <time>2025-05-06T12:27:54Z</time>
      </trkpt>
      <trkpt lat="46.99952" lon="-2.24616">
        <ele>50</ele>
        <time>2025-05-06T12:28:01Z</time>
      </trkpt>
      <trkpt lat="46.99946" lon="-2.24575">
        <ele>49</ele>
        <time>2025-05-06T12:28:14Z</time>
      </trkpt>
      <trkpt lat="46.9994" lon="-2.24533">
        <ele>52</ele>
        <time>2025-05-06T12:28:24Z</time>
      </trkpt>
      <trkpt lat="46.99938" lon="-2.24514">
        <ele>52</ele>
        <time>2025-05-06T12:28:31Z</time>
      </trkpt>
      <trkpt lat="46.99932" lon="-2.24459">
        <ele>50</ele>
        <time>2025-05-06T12:28:47Z</time>
      </trkpt>
      <trkpt lat="46.99918" lon="-2.24374">
        <ele>50</ele>
        <time>2025-05-06T12:29:03Z</time>
      </trkpt>
      <trkpt lat="46.99912" lon="-2.24335">
        <ele>50</ele>
        <time>2025-05-06T12:29:11Z</time>
      </trkpt>
      <trkpt lat="46.99908" lon="-2.24302">
        <ele>51</ele>
        <time>2025-05-06T12:29:17Z</time>
      </trkpt>
      <trkpt lat="46.99902" lon="-2.24266">
        <ele>51</ele>
        <time>2025-05-06T12:29:24Z</time>
      </trkpt>
      <trkpt lat="46.99897" lon="-2.24242">
        <ele>50</ele>
        <time>2025-05-06T12:29:29Z</time>
      </trkpt>
      <trkpt lat="46.99887" lon="-2.2417">
        <ele>49</ele>
        <time>2025-05-06T12:29:42Z</time>
      </trkpt>
      <trkpt lat="46.99864" lon="-2.24091">
        <ele>50</ele>
        <time>2025-05-06T12:29:57Z</time>
      </trkpt>
      <trkpt lat="46.99851" lon="-2.2406">
        <ele>52</ele>
        <time>2025-05-06T12:30:04Z</time>
      </trkpt>
      <trkpt lat="46.99835" lon="-2.24018">
        <ele>52</ele>
        <time>2025-05-06T12:30:14Z</time>
      </trkpt>
      <trkpt lat="46.99828" lon="-2.24">
        <ele>51</ele>
        <time>2025-05-06T12:30:19Z</time>
      </trkpt>
      <trkpt lat="46.99816" lon="-2.23971">
        <ele>50</ele>
        <time>2025-05-06T12:30:27Z</time>
      </trkpt>
      <trkpt lat="46.99801" lon="-2.23933">
        <ele>51</ele>
        <time>2025-05-06T12:30:41Z</time>
      </trkpt>
      <trkpt lat="46.99783" lon="-2.23885">
        <ele>53</ele>
        <time>2025-05-06T12:32:22Z</time>
      </trkpt>
      <trkpt lat="46.99774" lon="-2.23862">
        <ele>53</ele>
        <time>2025-05-06T12:32:27Z</time>
      </trkpt>
      <trkpt lat="46.99762" lon="-2.23832">
        <ele>52</ele>
        <time>2025-05-06T12:32:33Z</time>
      </trkpt>
      <trkpt lat="46.99733" lon="-2.23761">
        <ele>52</ele>
        <time>2025-05-06T12:32:46Z</time>
      </trkpt>
      <trkpt lat="46.99724" lon="-2.23739">
        <ele>52</ele>
        <time>2025-05-06T12:32:50Z</time>
      </trkpt>
      <trkpt lat="46.99718" lon="-2.23722">
        <ele>52</ele>
        <time>2025-05-06T12:32:53Z</time>
      </trkpt>
      <trkpt lat="46.99711" lon="-2.23704">
        <ele>52</ele>
        <time>2025-05-06T12:32:56Z</time>
      </trkpt>
      <trkpt lat="46.99701" lon="-2.23681">
        <ele>52</ele>
        <time>2025-05-06T12:33:00Z</time>
      </trkpt>
      <trkpt lat="46.99692" lon="-2.23658">
        <ele>52</ele>
        <time>2025-05-06T12:33:04Z</time>
      </trkpt>
      <trkpt lat="46.99683" lon="-2.23636">
        <ele>52</ele>
        <time>2025-05-06T12:33:08Z</time>
      </trkpt>
      <trkpt lat="46.99674" lon="-2.23613">
        <ele>52</ele>
        <time>2025-05-06T12:33:12Z</time>
      </trkpt>
      <trkpt lat="46.99666" lon="-2.23592">
        <ele>53</ele>
        <time>2025-05-06T12:33:16Z</time>
      </trkpt>
      <trkpt lat="46.99655" lon="-2.23564">
        <ele>53</ele>
        <time>2025-05-06T12:33:21Z</time>
      </trkpt>
      <trkpt lat="46.99624" lon="-2.2349">
        <ele>53</ele>
        <time>2025-05-06T12:33:34Z</time>
      </trkpt>
      <trkpt lat="46.99617" lon="-2.23472">
        <ele>53</ele>
        <time>2025-05-06T12:33:37Z</time>
      </trkpt>
      <trkpt lat="46.99605" lon="-2.23443">
        <ele>54</ele>
        <time>2025-05-06T12:33:42Z</time>
      </trkpt>
      <trkpt lat="46.99598" lon="-2.23426">
        <ele>54</ele>
        <time>2025-05-06T12:33:45Z</time>
      </trkpt>
      <trkpt lat="46.9959" lon="-2.23404">
        <ele>52</ele>
        <time>2025-05-06T12:33:49Z</time>
      </trkpt>
      <trkpt lat="46.99572" lon="-2.23357">
        <ele>53</ele>
        <time>2025-05-06T12:33:57Z</time>
      </trkpt>
      <trkpt lat="46.99563" lon="-2.23335">
        <ele>53</ele>
        <time>2025-05-06T12:34:01Z</time>
      </trkpt>
      <trkpt lat="46.99556" lon="-2.23317">
        <ele>53</ele>
        <time>2025-05-06T12:34:04Z</time>
      </trkpt>
      <trkpt lat="46.9954" lon="-2.23278">
        <ele>53</ele>
        <time>2025-05-06T12:34:11Z</time>
      </trkpt>
      <trkpt lat="46.9951" lon="-2.23203">
        <ele>52</ele>
        <time>2025-05-06T12:34:24Z</time>
      </trkpt>
      <trkpt lat="46.99499" lon="-2.23175">
        <ele>54</ele>
        <time>2025-05-06T12:34:29Z</time>
      </trkpt>
      <trkpt lat="46.9948" lon="-2.23124">
        <ele>53</ele>
        <time>2025-05-06T12:34:38Z</time>
      </trkpt>
      <trkpt lat="46.9947" lon="-2.23096">
        <ele>53</ele>
        <time>2025-05-06T12:34:43Z</time>
      </trkpt>
      <trkpt lat="46.99456" lon="-2.23062">
        <ele>52</ele>
        <time>2025-05-06T12:34:49Z</time>
      </trkpt>
      <trkpt lat="46.99418" lon="-2.22966">
        <ele>53</ele>
        <time>2025-05-06T12:35:06Z</time>
      </trkpt>
      <trkpt lat="46.994" lon="-2.22922">
        <ele>53</ele>
        <time>2025-05-06T12:35:14Z</time>
      </trkpt>
      <trkpt lat="46.9938" lon="-2.22872">
        <ele>52</ele>
        <time>2025-05-06T12:35:23Z</time>
      </trkpt>
      <trkpt lat="46.99362" lon="-2.22829">
        <ele>53</ele>
        <time>2025-05-06T12:35:31Z</time>
      </trkpt>
      <trkpt lat="46.99345" lon="-2.22784">
        <ele>53</ele>
        <time>2025-05-06T12:35:39Z</time>
      </trkpt>
      <trkpt lat="46.99334" lon="-2.22758">
        <ele>52</ele>
        <time>2025-05-06T12:35:44Z</time>
      </trkpt>
      <trkpt lat="46.99326" lon="-2.22736">
        <ele>53</ele>
        <time>2025-05-06T12:35:48Z</time>
      </trkpt>
      <trkpt lat="46.99317" lon="-2.22715">
        <ele>54</ele>
        <time>2025-05-06T12:35:52Z</time>
      </trkpt>
      <trkpt lat="46.99305" lon="-2.22688">
        <ele>53</ele>
        <time>2025-05-06T12:35:57Z</time>
      </trkpt>
      <trkpt lat="46.99295" lon="-2.22661">
        <ele>53</ele>
        <time>2025-05-06T12:36:02Z</time>
      </trkpt>
      <trkpt lat="46.99286" lon="-2.22639">
        <ele>53</ele>
        <time>2025-05-06T12:36:06Z</time>
      </trkpt>
      <trkpt lat="46.99271" lon="-2.22606">
        <ele>54</ele>
        <time>2025-05-06T12:36:12Z</time>
      </trkpt>
      <trkpt lat="46.99252" lon="-2.22564">
        <ele>54</ele>
        <time>2025-05-06T12:36:20Z</time>
      </trkpt>
      <trkpt lat="46.99242" lon="-2.22544">
        <ele>54</ele>
        <time>2025-05-06T12:36:24Z</time>
      </trkpt>
      <trkpt lat="46.99218" lon="-2.22499">
        <ele>54</ele>
        <time>2025-05-06T12:36:33Z</time>
      </trkpt>
      <trkpt lat="46.99209" lon="-2.22479">
        <ele>54</ele>
        <time>2025-05-06T12:36:37Z</time>
      </trkpt>
      <trkpt lat="46.99193" lon="-2.22452">
        <ele>52</ele>
        <time>2025-05-06T12:36:43Z</time>
      </trkpt>
      <trkpt lat="46.99153" lon="-2.22324">
        <ele>52</ele>
        <time>2025-05-06T12:37:07Z</time>
      </trkpt>
      <trkpt lat="46.99172" lon="-2.22253">
        <ele>51</ele>
        <time>2025-05-06T12:37:17Z</time>
      </trkpt>
      <trkpt lat="46.99179" lon="-2.22232">
        <ele>50</ele>
        <time>2025-05-06T12:37:20Z</time>
      </trkpt>
      <trkpt lat="46.99189" lon="-2.22214">
        <ele>50</ele>
        <time>2025-05-06T12:37:23Z</time>
      </trkpt>
      <trkpt lat="46.99232" lon="-2.22154">
        <ele>51</ele>
        <time>2025-05-06T12:37:35Z</time>
      </trkpt>
      <trkpt lat="46.99267" lon="-2.22106">
        <ele>52</ele>
        <time>2025-05-06T12:37:48Z</time>
      </trkpt>
      <trkpt lat="46.99286" lon="-2.22075">
        <ele>55</ele>
        <time>2025-05-06T12:37:57Z</time>
      </trkpt>
      <trkpt lat="46.99301" lon="-2.2205">
        <ele>52</ele>
        <time>2025-05-06T12:38:03Z</time>
      </trkpt>
      <trkpt lat="46.99351" lon="-2.22021">
        <ele>52</ele>
        <time>2025-05-06T12:38:16Z</time>
      </trkpt>
      <trkpt lat="46.99391" lon="-2.22011">
        <ele>54</ele>
        <time>2025-05-06T12:38:26Z</time>
      </trkpt>
      <trkpt lat="46.99407" lon="-2.22005">
        <ele>55</ele>
        <time>2025-05-06T12:38:30Z</time>
      </trkpt>
      <trkpt lat="46.99421" lon="-2.22001">
        <ele>54</ele>
        <time>2025-05-06T12:38:34Z</time>
      </trkpt>
      <trkpt lat="46.9948" lon="-2.21996">
        <ele>53</ele>
        <time>2025-05-06T12:38:49Z</time>
      </trkpt>
      <trkpt lat="46.99499" lon="-2.21999">
        <ele>54</ele>
        <time>2025-05-06T12:38:54Z</time>
      </trkpt>
      <trkpt lat="46.99571" lon="-2.22006">
        <ele>52</ele>
        <time>2025-05-06T12:39:13Z</time>
      </trkpt>
      <trkpt lat="46.99642" lon="-2.22056">
        <ele>51</ele>
        <time>2025-05-06T12:39:28Z</time>
      </trkpt>
      <trkpt lat="46.99663" lon="-2.22068">
        <ele>51</ele>
        <time>2025-05-06T12:39:33Z</time>
      </trkpt>
      <trkpt lat="46.9969" lon="-2.22074">
        <ele>49</ele>
        <time>2025-05-06T12:39:40Z</time>
      </trkpt>
      <trkpt lat="46.99719" lon="-2.22084">
        <ele>54</ele>
        <time>2025-05-06T12:39:57Z</time>
      </trkpt>
      <trkpt lat="46.99735" lon="-2.22086">
        <ele>54</ele>
        <time>2025-05-06T12:40:03Z</time>
      </trkpt>
      <trkpt lat="46.99753" lon="-2.22089">
        <ele>53</ele>
        <time>2025-05-06T12:40:09Z</time>
      </trkpt>
      <trkpt lat="46.99778" lon="-2.22092">
        <ele>55</ele>
        <time>2025-05-06T12:40:17Z</time>
      </trkpt>
      <trkpt lat="46.9982" lon="-2.221">
        <ele>54</ele>
        <time>2025-05-06T12:40:29Z</time>
      </trkpt>
      <trkpt lat="46.99847" lon="-2.22111">
        <ele>55</ele>
        <time>2025-05-06T12:40:37Z</time>
      </trkpt>
      <trkpt lat="46.99869" lon="-2.22118">
        <ele>57</ele>
        <time>2025-05-06T12:40:44Z</time>
      </trkpt>
      <trkpt lat="47.00119" lon="-2.22105">
        <ele>54</ele>
        <time>2025-05-06T12:42:02Z</time>
      </trkpt>
      <trkpt lat="47.00155" lon="-2.22101">
        <ele>55</ele>
        <time>2025-05-06T12:42:13Z</time>
      </trkpt>
      <trkpt lat="47.00169" lon="-2.22099">
        <ele>55</ele>
        <time>2025-05-06T12:42:18Z</time>
      </trkpt>
      <trkpt lat="47.002" lon="-2.22095">
        <ele>57</ele>
        <time>2025-05-06T12:42:28Z</time>
      </trkpt>
      <trkpt lat="47.00238" lon="-2.22092">
        <ele>58</ele>
        <time>2025-05-06T12:42:44Z</time>
      </trkpt>
      <trkpt lat="47.00287" lon="-2.22085">
        <ele>53</ele>
        <time>2025-05-06T12:44:28Z</time>
      </trkpt>
      <trkpt lat="47.00311" lon="-2.22076">
        <ele>51</ele>
        <time>2025-05-06T12:44:35Z</time>
      </trkpt>
      <trkpt lat="47.00358" lon="-2.22074">
        <ele>52</ele>
        <time>2025-05-06T12:44:48Z</time>
      </trkpt>
      <trkpt lat="47.00375" lon="-2.22075">
        <ele>51</ele>
        <time>2025-05-06T12:44:53Z</time>
      </trkpt>
      <trkpt lat="47.00413" lon="-2.22085">
        <ele>52</ele>
        <time>2025-05-06T12:45:04Z</time>
      </trkpt>
      <trkpt lat="47.00436" lon="-2.22093">
        <ele>54</ele>
        <time>2025-05-06T12:45:11Z</time>
      </trkpt>
      <trkpt lat="47.00453" lon="-2.221">
        <ele>55</ele>
        <time>2025-05-06T12:45:16Z</time>
      </trkpt>
      <trkpt lat="47.00469" lon="-2.22104">
        <ele>56</ele>
        <time>2025-05-06T12:45:22Z</time>
      </trkpt>
      <trkpt lat="47.00836" lon="-2.22373">
        <ele>56</ele>
        <time>2025-05-06T12:47:20Z</time>
      </trkpt>
      <trkpt lat="47.00883" lon="-2.22411">
        <ele>57</ele>
        <time>2025-05-06T12:47:35Z</time>
      </trkpt>
      <trkpt lat="47.00911" lon="-2.22431">
        <ele>53</ele>
        <time>2025-05-06T12:47:44Z</time>
      </trkpt>
      <trkpt lat="47.00945" lon="-2.22375">
        <ele>58</ele>
        <time>2025-05-06T12:48:06Z</time>
      </trkpt>
      <trkpt lat="47.00954" lon="-2.2234">
        <ele>61</ele>
        <time>2025-05-06T12:48:19Z</time>
      </trkpt>
      <trkpt lat="47.01" lon="-2.2234">
        <ele>61</ele>
        <time>2025-05-06T12:48:43Z</time>
      </trkpt>
      <trkpt lat="47.01042" lon="-2.22343">
        <ele>62</ele>
        <time>2025-05-06T12:49:03Z</time>
      </trkpt>
    </trkseg>
  </trk>
</gpx>